Observation data for Amarillo 7 South Southeast on 03/10/2018      Previous  Date  Next       Current Mesonet Observations  Soil Data  Daily Summary Page  Observations in Plain Language
KAM1 100600Z 18006KT 05/M12 A2985 RMK A01 T00501119  RH  028%=      5-min Rain = 0
KAM1 100601Z 18006KT 05/M12 A2985 RMK A01 T00511119  RH  028%=      5-min Rain = 0
KAM1 100602Z 18006KT 05/M12 A2985 RMK A01 T00511119  RH  028%=      5-min Rain = 0
KAM1 100603Z 17006KT 05/M12 A2985 RMK A01 T00521118  RH  028%=      5-min Rain = 0
KAM1 100604Z 17007KT 05/M12 A2985 RMK A01 T00531118  RH  028%=      5-min Rain = 0
KAM1 100605Z 16007KT 05/M12 A2985 RMK A01 T00541119  RH  028%=      5-min Rain = 0
KAM1 100606Z 16007KT 05/M12 A2984 RMK A01 T00541119  RH  028%=      5-min Rain = 0
KAM1 100607Z 15007KT 05/M12 A2984 RMK A01 T00531119  RH  028%=      5-min Rain = 0
KAM1 100608Z 14008KT 05/M12 A2984 RMK A01 T00511120  RH  028%=      5-min Rain = 0
KAM1 100609Z 14007KT 05/M12 A2984 RMK A01 T00501120  RH  028%=      5-min Rain = 0
KAM1 100610Z 14007KT 05/M12 A2984 RMK A01 T00501119  RH  028%=      5-min Rain = 0
KAM1 100611Z 14006KT 05/M12 A2984 RMK A01 T00511117  RH  028%=      5-min Rain = 0
KAM1 100612Z 13006KT 05/M11 A2984 RMK A01 T00521114  RH  029%=      5-min Rain = 0
KAM1 100613Z 14007KT 05/M11 A2984 RMK A01 T00511111  RH  030%=      5-min Rain = 0
KAM1 100614Z 14007KT 05/M11 A2983 RMK A01 T00521111  RH  030%=      5-min Rain = 0
KAM1 100615Z 14007KT 05/M11 A2983 RMK A01 T00501113  RH  029%=      5-min Rain = 0
KAM1 100616Z 14007KT 05/M11 A2983 RMK A01 T00481114  RH  030%=      5-min Rain = 0
KAM1 100617Z 14007KT 05/M11 A2983 RMK A01 T00471111  RH  031%=      5-min Rain = 0
KAM1 100618Z 14007KT 05/M11 A2984 RMK A01 T00461106  RH  032%=      5-min Rain = 0
KAM1 100619Z 14008KT 05/M10 A2984 RMK A01 T00451101  RH  034%=      5-min Rain = 0
KAM1 100620Z 15008KT 05/M10 A2984 RMK A01 T00461098  RH  034%=      5-min Rain = 0
KAM1 100621Z 14008KT 05/M10 A2984 RMK A01 T00471098  RH  034%=      5-min Rain = 0
KAM1 100622Z 14009KT 05/M10 A2983 RMK A01 T00491099  RH  033%=      5-min Rain = 0
KAM1 100623Z 14009KT 05/M10 A2983 RMK A01 T00531099  RH  032%=      5-min Rain = 0
KAM1 100624Z 14010KT 06/M10 A2983 RMK A01 T00591098  RH  031%=      5-min Rain = 0
KAM1 100625Z 14010KT 06/M10 A2983 RMK A01 T00641098  RH  030%=      5-min Rain = 0
KAM1 100626Z 14011KT 07/M10 A2983 RMK A01 T00681099  RH  029%=      5-min Rain = 0
KAM1 100627Z 14010KT 07/M10 A2983 RMK A01 T00731099  RH  028%=      5-min Rain = 0
KAM1 100628Z 14010KT 08/M10 A2982 RMK A01 T00761098  RH  028%=      5-min Rain = 0
KAM1 100629Z 14010KT 08/M10 A2982 RMK A01 T00791098  RH  027%=      5-min Rain = 0
KAM1 100630Z 14009KT 08/M10 A2982 RMK A01 T00821099  RH  027%=      5-min Rain = 0
KAM1 100631Z 14009KT 08/M10 A2982 RMK A01 T00831100  RH  026%=      5-min Rain = 0
KAM1 100632Z 14009KT 08/M10 A2982 RMK A01 T00841101  RH  026%=      5-min Rain = 0
KAM1 100633Z 14009KT 08/M10 A2982 RMK A01 T00841102  RH  026%=      5-min Rain = 0
KAM1 100634Z 14009KT 09/M10 A2982 RMK A01 T00851103  RH  025%=      5-min Rain = 0
KAM1 100635Z 14009KT 08/M10 A2982 RMK A01 T00841103  RH  025%=      5-min Rain = 0
KAM1 100636Z 13010KT 08/M10 A2982 RMK A01 T00821104  RH  025%=      5-min Rain = 0
KAM1 100637Z 13010KT 08/M11 A2982 RMK A01 T00811105  RH  026%=      5-min Rain = 0
KAM1 100638Z 13009KT 08/M10 A2982 RMK A01 T00801104  RH  026%=      5-min Rain = 0
KAM1 100639Z 13009KT 08/M10 A2982 RMK A01 T00801103  RH  026%=      5-min Rain = 0
KAM1 100640Z 14009KT 08/M10 A2982 RMK A01 T00801102  RH  026%=      5-min Rain = 0
KAM1 100641Z 13008KT 08/M10 A2982 RMK A01 T00801102  RH  026%=      5-min Rain = 0
KAM1 100642Z 13008KT 08/M10 A2982 RMK A01 T00801101  RH  026%=      5-min Rain = 0
KAM1 100643Z 13008KT 08/M10 A2982 RMK A01 T00801101  RH  026%=      5-min Rain = 0
KAM1 100644Z 13008KT 08/M10 A2982 RMK A01 T00801101  RH  027%=      5-min Rain = 0
KAM1 100645Z 13007KT 08/M10 A2982 RMK A01 T00781102  RH  027%=      5-min Rain = 0
KAM1 100646Z 13008KT 08/M10 A2982 RMK A01 T00771101  RH  027%=      5-min Rain = 0
KAM1 100647Z 13008KT 08/M10 A2982 RMK A01 T00761101  RH  027%=      5-min Rain = 0
KAM1 100648Z 13008KT 08/M10 A2982 RMK A01 T00751102  RH  027%=      5-min Rain = 0
KAM1 100649Z 14008KT 07/M10 A2983 RMK A01 T00741102  RH  028%=      5-min Rain = 0
KAM1 100650Z 13008KT 07/M10 A2983 RMK A01 T00731101  RH  028%=      5-min Rain = 0
KAM1 100651Z 14007KT 07/M10 A2983 RMK A01 T00731101  RH  028%=      5-min Rain = 0
KAM1 100652Z 14008KT 07/M10 A2982 RMK A01 T00731101  RH  028%=      5-min Rain = 0
KAM1 100653Z 14008KT 07/M10 A2982 RMK A01 T00731100  RH  028%=      5-min Rain = 0
KAM1 100654Z 14008KT 08/M10 A2982 RMK A01 T00751100  RH  028%=      5-min Rain = 0
KAM1 100655Z 14008KT 08/M10 A2982 RMK A01 T00761101  RH  027%=      5-min Rain = 0
KAM1 100656Z 14008KT 08/M10 A2982 RMK A01 T00761102  RH  027%=      5-min Rain = 0
KAM1 100657Z 14008KT 08/M10 A2982 RMK A01 T00761102  RH  027%=      5-min Rain = 0
KAM1 100658Z 14008KT 08/M10 A2982 RMK A01 T00761102  RH  027%=      5-min Rain = 0
KAM1 100659Z 14008KT 08/M10 A2982 RMK A01 T00761102  RH  027%=      5-min Rain = 0
KAM1 100700Z 14008KT 08/M10 A2982 RMK A01 T00761102  RH  027%=      5-min Rain = 0
KAM1 100701Z 15008KT 08/M10 A2982 RMK A01 T00761101  RH  027%=      5-min Rain = 0
KAM1 100702Z 15008KT 08/M10 A2982 RMK A01 T00761100  RH  027%=      5-min Rain = 0
KAM1 100703Z 14008KT 08/M10 A2982 RMK A01 T00761099  RH  028%=      5-min Rain = 0
KAM1 100704Z 14008KT 08/M10 A2982 RMK A01 T00771098  RH  028%=      5-min Rain = 0
KAM1 100705Z 14009KT 08/M10 A2982 RMK A01 T00781098  RH  028%=      5-min Rain = 0
KAM1 100706Z 14008KT 08/M10 A2982 RMK A01 T00791098  RH  027%=      5-min Rain = 0
KAM1 100707Z 14008KT 08/M10 A2982 RMK A01 T00801097  RH  027%=      5-min Rain = 0
KAM1 100708Z 14007KT 08/M10 A2982 RMK A01 T00811098  RH  027%=      5-min Rain = 0
KAM1 100709Z 15008KT 08/M10 A2982 RMK A01 T00811098  RH  027%=      5-min Rain = 0
KAM1 100710Z 15008KT 08/M10 A2982 RMK A01 T00811098  RH  027%=      5-min Rain = 0
KAM1 100711Z 15008KT 08/M10 A2982 RMK A01 T00811098  RH  027%=      5-min Rain = 0
KAM1 100712Z 15008KT 08/M10 A2982 RMK A01 T00801098  RH  027%=      5-min Rain = 0
KAM1 100713Z 15008KT 08/M10 A2982 RMK A01 T00781099  RH  027%=      5-min Rain = 0
KAM1 100714Z 15008KT 08/M10 A2982 RMK A01 T00771100  RH  027%=      5-min Rain = 0
KAM1 100715Z 15008KT 08/M10 A2982 RMK A01 T00751101  RH  028%=      5-min Rain = 0
KAM1 100716Z 15008KT 07/M10 A2982 RMK A01 T00741101  RH  028%=      5-min Rain = 0
KAM1 100717Z 15008KT 07/M10 A2982 RMK A01 T00741101  RH  028%=      5-min Rain = 0
KAM1 100718Z 15007KT 07/M10 A2982 RMK A01 T00731101  RH  028%=      5-min Rain = 0
KAM1 100719Z 16007KT 07/M10 A2982 RMK A01 T00721101  RH  028%=      5-min Rain = 0
KAM1 100720Z 16007KT 07/M10 A2982 RMK A01 T00691103  RH  028%=      5-min Rain = 0
KAM1 100721Z 16008KT 07/M11 A2982 RMK A01 T00661105  RH  028%=      5-min Rain = 0
KAM1 100722Z 16008KT 06/M11 A2982 RMK A01 T00631106  RH  029%=      5-min Rain = 0
KAM1 100723Z 16007KT 06/M11 A2982 RMK A01 T00611107  RH  029%=      5-min Rain = 0
KAM1 100724Z 16007KT 06/M11 A2982 RMK A01 T00571108  RH  029%=      5-min Rain = 0
KAM1 100725Z 16006KT 05/M11 A2982 RMK A01 T00541109  RH  030%=      5-min Rain = 0
KAM1 100726Z 15007KT 05/M11 A2982 RMK A01 T00521109  RH  030%=      5-min Rain = 0
KAM1 100727Z 15006KT 05/M11 A2982 RMK A01 T00511109  RH  030%=      5-min Rain = 0
KAM1 100728Z 16006KT 05/M11 A2982 RMK A01 T00501109  RH  031%=      5-min Rain = 0
KAM1 100729Z 17005KT 05/M11 A2982 RMK A01 T00491109  RH  031%=      5-min Rain = 0
KAM1 100730Z 20005KT 05/M11 A2982 RMK A01 T00491108  RH  031%=      5-min Rain = 0
KAM1 100731Z 22005KT 05/M11 A2982 RMK A01 T00471108  RH  032%=      5-min Rain = 0
KAM1 100732Z 22004KT 04/M11 A2982 RMK A01 T00441108  RH  032%=      5-min Rain = 0
KAM1 100733Z 21004KT 04/M11 A2982 RMK A01 T00421108  RH  033%=      5-min Rain = 0
KAM1 100734Z 21004KT 04/M11 A2982 RMK A01 T00411107  RH  033%=      5-min Rain = 0
KAM1 100735Z 20004KT 04/M11 A2982 RMK A01 T00411105  RH  034%=      5-min Rain = 0
KAM1 100736Z 20004KT 04/M10 A2982 RMK A01 T00411104  RH  034%=      5-min Rain = 0
KAM1 100737Z 20003KT 04/M10 A2982 RMK A01 T00431103  RH  034%=      5-min Rain = 0
KAM1 100738Z 19004KT 04/M10 A2982 RMK A01 T00441101  RH  034%=      5-min Rain = 0
KAM1 100739Z 19004KT 05/M10 A2982 RMK A01 T00451101  RH  034%=      5-min Rain = 0
KAM1 100740Z 19003KT 05/M10 A2982 RMK A01 T00461100  RH  034%=      5-min Rain = 0
KAM1 100741Z 18003KT 05/M10 A2982 RMK A01 T00481099  RH  034%=      5-min Rain = 0
KAM1 100742Z 17003KT 05/M10 A2982 RMK A01 T00501097  RH  034%=      5-min Rain = 0
KAM1 100743Z 15003KT 05/M10 A2982 RMK A01 T00511096  RH  034%=      5-min Rain = 0
KAM1 100744Z 13003KT 05/M09 A2982 RMK A01 T00541094  RH  033%=      5-min Rain = 0
KAM1 100745Z 12004KT 06/M09 A2982 RMK A01 T00581092  RH  033%=      5-min Rain = 0
KAM1 100746Z 13004KT 06/M09 A2982 RMK A01 T00621091  RH  033%=      5-min Rain = 0
KAM1 100747Z 16004KT 06/M09 A2982 RMK A01 T00631093  RH  032%=      5-min Rain = 0
KAM1 100748Z 18004KT 06/M09 A2982 RMK A01 T00631094  RH  032%=      5-min Rain = 0
KAM1 100749Z 21003KT 06/M10 A2982 RMK A01 T00611095  RH  032%=      5-min Rain = 0
KAM1 100750Z 21003KT 06/M10 A2982 RMK A01 T00571097  RH  032%=      5-min Rain = 0
KAM1 100751Z 22002KT 05/M10 A2982 RMK A01 T00541097  RH  033%=      5-min Rain = 0
KAM1 100752Z 20002KT 05/M10 A2982 RMK A01 T00531096  RH  033%=      5-min Rain = 0
KAM1 100753Z 17002KT 05/M10 A2982 RMK A01 T00521095  RH  034%=      5-min Rain = 0
KAM1 100754Z 15002KT 05/M09 A2982 RMK A01 T00521094  RH  034%=      5-min Rain = 0
KAM1 100755Z 14002KT 05/M09 A2982 RMK A01 T00521094  RH  034%=      5-min Rain = 0
KAM1 100756Z 15003KT 05/M09 A2982 RMK A01 T00521093  RH  034%=      5-min Rain = 0
KAM1 100757Z 15002KT 05/M09 A2982 RMK A01 T00531093  RH  034%=      5-min Rain = 0
KAM1 100758Z 17002KT 05/M09 A2982 RMK A01 T00531093  RH  034%=      5-min Rain = 0
KAM1 100759Z 19002KT 05/M09 A2982 RMK A01 T00521094  RH  034%=      5-min Rain = 0
KAM1 100800Z 21002KT 05/M10 A2982 RMK A01 T00511095  RH  034%=      5-min Rain = 0
KAM1 100801Z 21003KT 05/M09 A2982 RMK A01 T00511093  RH  035%=      5-min Rain = 0
KAM1 100802Z 19003KT 05/M09 A2982 RMK A01 T00521091  RH  035%=      5-min Rain = 0
KAM1 100803Z 18003KT 05/M09 A2982 RMK A01 T00541091  RH  034%=      5-min Rain = 0
KAM1 100804Z 18002KT 06/M09 A2982 RMK A01 T00551090  RH  034%=      5-min Rain = 0
KAM1 100805Z 18002KT 06/M09 A2982 RMK A01 T00551091  RH  034%=      5-min Rain = 0
KAM1 100806Z 21001KT 05/M09 A2982 RMK A01 T00531094  RH  034%=      5-min Rain = 0
KAM1 100807Z 19001KT 05/M10 A2982 RMK A01 T00481096  RH  034%=      5-min Rain = 0
KAM1 100808Z 20001KT 04/M10 A2982 RMK A01 T00441096  RH  035%=      5-min Rain = 0
KAM1 100809Z 21001KT 04/M09 A2982 RMK A01 T00421094  RH  036%=      5-min Rain = 0
KAM1 100810Z 21001KT 04/M09 A2982 RMK A01 T00411093  RH  037%=      5-min Rain = 0
KAM1 100811Z 22001KT 04/M09 A2982 RMK A01 T00401093  RH  037%=      5-min Rain = 0
KAM1 100812Z 23001KT 04/M09 A2982 RMK A01 T00381093  RH  038%=      5-min Rain = 0
KAM1 100813Z 25001KT 04/M09 A2982 RMK A01 T00361094  RH  038%=      5-min Rain = 0
KAM1 100814Z 27001KT 03/M09 A2982 RMK A01 T00331091  RH  040%=      5-min Rain = 0
KAM1 100815Z 27002KT 03/M09 A2982 RMK A01 T00331089  RH  041%=      5-min Rain = 0
KAM1 100816Z 27003KT 03/M09 A2982 RMK A01 T00301090  RH  041%=      5-min Rain = 0
KAM1 100817Z 27003KT 03/M09 A2982 RMK A01 T00271090  RH  042%=      5-min Rain = 0
KAM1 100818Z 27003KT 03/M09 A2982 RMK A01 T00261089  RH  042%=      5-min Rain = 0
KAM1 100819Z 27003KT 03/M09 A2982 RMK A01 T00251089  RH  043%=      5-min Rain = 0
KAM1 100820Z 26003KT 03/M09 A2982 RMK A01 T00251090  RH  042%=      5-min Rain = 0
KAM1 100821Z 25002KT 03/M09 A2982 RMK A01 T00251090  RH  042%=      5-min Rain = 0
KAM1 100822Z 24002KT 02/M09 A2982 RMK A01 T00241091  RH  042%=      5-min Rain = 0
KAM1 100823Z 24001KT 02/M09 A2982 RMK A01 T00221092  RH  043%=      5-min Rain = 0
KAM1 100824Z 23001KT 02/M09 A2982 RMK A01 T00211091  RH  043%=      5-min Rain = 0
KAM1 100825Z 23002KT 02/M09 A2982 RMK A01 T00221092  RH  043%=      5-min Rain = 0
KAM1 100826Z 22003KT 02/M09 A2982 RMK A01 T00221092  RH  043%=      5-min Rain = 0
KAM1 100827Z 22004KT 02/M09 A2982 RMK A01 T00221092  RH  042%=      5-min Rain = 0
KAM1 100828Z 24004KT 02/M09 A2982 RMK A01 T00231092  RH  042%=      5-min Rain = 0
KAM1 100829Z 23003KT 03/M09 A2982 RMK A01 T00251090  RH  043%=      5-min Rain = 0
KAM1 100830Z 23003KT 03/M09 A2982 RMK A01 T00261090  RH  042%=      5-min Rain = 0
KAM1 100831Z 23003KT 03/M09 A2982 RMK A01 T00271090  RH  042%=      5-min Rain = 0
KAM1 100832Z 23002KT 03/M09 A2982 RMK A01 T00261090  RH  042%=      5-min Rain = 0
KAM1 100833Z 23002KT 03/M09 A2982 RMK A01 T00261090  RH  042%=      5-min Rain = 0
KAM1 100834Z 24004KT 03/M09 A2982 RMK A01 T00251090  RH  042%=      5-min Rain = 0
KAM1 100835Z 24006KT 03/M09 A2982 RMK A01 T00271088  RH  043%=      5-min Rain = 0
KAM1 100836Z 23007KT 03/M09 A2982 RMK A01 T00281088  RH  042%=      5-min Rain = 0
KAM1 100837Z 22007KT 03/M09 A2982 RMK A01 T00271088  RH  042%=      5-min Rain = 0
KAM1 100838Z 21006KT 03/M09 A2982 RMK A01 T00271087  RH  043%=      5-min Rain = 0
KAM1 100839Z 20005KT 03/M09 A2982 RMK A01 T00281085  RH  043%=      5-min Rain = 0
KAM1 100840Z 18004KT 03/M08 A2982 RMK A01 T00311083  RH  043%=      5-min Rain = 0
KAM1 100841Z 18005KT 03/M08 A2982 RMK A01 T00331081  RH  043%=      5-min Rain = 0
KAM1 100842Z 19005KT 04/M08 A2982 RMK A01 T00351081  RH  042%=      5-min Rain = 0
KAM1 100843Z 20006KT 04/M08 A2982 RMK A01 T00361082  RH  042%=      5-min Rain = 0
KAM1 100844Z 20007KT 04/M08 A2982 RMK A01 T00351082  RH  042%=      5-min Rain = 0
KAM1 100845Z 20007KT 03/M08 A2982 RMK A01 T00341082  RH  042%=      5-min Rain = 0
KAM1 100846Z 19007KT 03/M08 A2981 RMK A01 T00331082  RH  043%=      5-min Rain = 0
KAM1 100847Z 19006KT 03/M08 A2981 RMK A01 T00321082  RH  043%=      5-min Rain = 0
KAM1 100848Z 19006KT 03/M08 A2981 RMK A01 T00321082  RH  043%=      5-min Rain = 0
KAM1 100849Z 19005KT 03/M08 A2981 RMK A01 T00321082  RH  043%=      5-min Rain = 0
KAM1 100850Z 20005KT 03/M08 A2981 RMK A01 T00321082  RH  043%=      5-min Rain = 0
KAM1 100851Z 21005KT 03/M08 A2981 RMK A01 T00311082  RH  043%=      5-min Rain = 0
KAM1 100852Z 21005KT 03/M08 A2981 RMK A01 T00311082  RH  043%=      5-min Rain = 0
KAM1 100853Z 22005KT 03/M08 A2981 RMK A01 T00321081  RH  043%=      5-min Rain = 0
KAM1 100854Z 21004KT 03/M08 A2981 RMK A01 T00311082  RH  043%=      5-min Rain = 0
KAM1 100855Z 20004KT 03/M08 A2981 RMK A01 T00291082  RH  044%=      5-min Rain = 0
KAM1 100856Z 19004KT 03/M08 A2981 RMK A01 T00281082  RH  044%=      5-min Rain = 0
KAM1 100857Z 18004KT 03/M08 A2981 RMK A01 T00281082  RH  044%=      5-min Rain = 0
KAM1 100858Z 18004KT 03/M08 A2981 RMK A01 T00271082  RH  045%=      5-min Rain = 0
KAM1 100859Z 18005KT 03/M08 A2981 RMK A01 T00271082  RH  045%=      5-min Rain = 0
KAM1 100900Z 19005KT 03/M08 A2981 RMK A01 T00271081  RH  045%=      5-min Rain = 0
KAM1 100901Z 20005KT 03/M08 A2981 RMK A01 T00301079  RH  045%=      5-min Rain = 0
KAM1 100902Z 22005KT 03/M08 A2981 RMK A01 T00341078  RH  044%=      5-min Rain = 0
KAM1 100903Z 23006KT 04/M08 A2981 RMK A01 T00351079  RH  043%=      5-min Rain = 0
KAM1 100904Z 23006KT 03/M09 A2981 RMK A01 T00291085  RH  043%=      5-min Rain = 0
KAM1 100905Z 22006KT 02/M09 A2981 RMK A01 T00231088  RH  043%=      5-min Rain = 0
KAM1 100906Z 21006KT 02/M09 A2981 RMK A01 T00201088  RH  044%=      5-min Rain = 0
KAM1 100907Z 20006KT 02/M09 A2981 RMK A01 T00191087  RH  045%=      5-min Rain = 0
KAM1 100908Z 19006KT 02/M09 A2981 RMK A01 T00201086  RH  046%=      5-min Rain = 0
KAM1 100909Z 18006KT 02/M08 A2981 RMK A01 T00221084  RH  046%=      5-min Rain = 0
KAM1 100910Z 18006KT 03/M08 A2981 RMK A01 T00251082  RH  045%=      5-min Rain = 0
KAM1 100911Z 18006KT 03/M08 A2981 RMK A01 T00281082  RH  044%=      5-min Rain = 0
KAM1 100912Z 18006KT 03/M08 A2981 RMK A01 T00291082  RH  044%=      5-min Rain = 0
KAM1 100913Z 20006KT 03/M08 A2981 RMK A01 T00301083  RH  043%=      5-min Rain = 0
KAM1 100914Z 22007KT 03/M08 A2981 RMK A01 T00301083  RH  043%=      5-min Rain = 0
KAM1 100915Z 22008KT 03/M08 A2981 RMK A01 T00291084  RH  043%=      5-min Rain = 0
KAM1 100916Z 22007KT 03/M09 A2981 RMK A01 T00251087  RH  043%=      5-min Rain = 0
KAM1 100917Z 22007KT 02/M09 A2981 RMK A01 T00221087  RH  044%=      5-min Rain = 0
KAM1 100918Z 21006KT 02/M09 A2981 RMK A01 T00221085  RH  045%=      5-min Rain = 0
KAM1 100919Z 20006KT 02/M08 A2981 RMK A01 T00231083  RH  045%=      5-min Rain = 0
KAM1 100920Z 19006KT 03/M08 A2981 RMK A01 T00251083  RH  045%=      5-min Rain = 0
KAM1 100921Z 19006KT 03/M08 A2981 RMK A01 T00271081  RH  045%=      5-min Rain = 0
KAM1 100922Z 18006KT 03/M08 A2981 RMK A01 T00301080  RH  044%=      5-min Rain = 0
KAM1 100923Z 19006KT 03/M08 A2981 RMK A01 T00331080  RH  043%=      5-min Rain = 0
KAM1 100924Z 20006KT 03/M08 A2981 RMK A01 T00341081  RH  043%=      5-min Rain = 0
KAM1 100925Z 20006KT 03/M08 A2981 RMK A01 T00341081  RH  043%=      5-min Rain = 0
KAM1 100926Z 21006KT 04/M08 A2981 RMK A01 T00351081  RH  042%=      5-min Rain = 0
KAM1 100927Z 21006KT 04/M08 A2981 RMK A01 T00361081  RH  042%=      5-min Rain = 0
KAM1 100928Z 21005KT 04/M08 A2981 RMK A01 T00361081  RH  042%=      5-min Rain = 0
KAM1 100929Z 22005KT 04/M08 A2981 RMK A01 T00361082  RH  042%=      5-min Rain = 0
KAM1 100930Z 23006KT 03/M08 A2981 RMK A01 T00341084  RH  042%=      5-min Rain = 0
KAM1 100931Z 24006KT 03/M09 A2981 RMK A01 T00301086  RH  042%=      5-min Rain = 0
KAM1 100932Z 25006KT 03/M09 A2981 RMK A01 T00261087  RH  043%=      5-min Rain = 0
KAM1 100933Z 24007KT 02/M09 A2981 RMK A01 T00231087  RH  044%=      5-min Rain = 0
KAM1 100934Z 23006KT 02/M09 A2981 RMK A01 T00191086  RH  046%=      5-min Rain = 0
KAM1 100935Z 21006KT 02/M08 A2981 RMK A01 T00181082  RH  047%=      5-min Rain = 0
KAM1 100936Z 20006KT 02/M08 A2981 RMK A01 T00181079  RH  049%=      5-min Rain = 0
KAM1 100937Z 20007KT 02/M08 A2981 RMK A01 T00181077  RH  049%=      5-min Rain = 0
KAM1 100938Z 20007KT 02/M08 A2981 RMK A01 T00191077  RH  049%=      5-min Rain = 0
KAM1 100939Z 20007KT 02/M08 A2981 RMK A01 T00201078  RH  048%=      5-min Rain = 0
KAM1 100940Z 20007KT 02/M08 A2981 RMK A01 T00201081  RH  047%=      5-min Rain = 0
KAM1 100941Z 21006KT 02/M08 A2981 RMK A01 T00211082  RH  046%=      5-min Rain = 0
KAM1 100942Z 22005KT 02/M08 A2981 RMK A01 T00241082  RH  046%=      5-min Rain = 0
KAM1 100943Z 22005KT 03/M08 A2981 RMK A01 T00261082  RH  045%=      5-min Rain = 0
KAM1 100944Z 24005KT 03/M08 A2981 RMK A01 T00271082  RH  044%=      5-min Rain = 0
KAM1 100945Z 26006KT 03/M08 A2981 RMK A01 T00281082  RH  044%=      5-min Rain = 0
KAM1 100946Z 26008KT 03/M08 A2981 RMK A01 T00271082  RH  045%=      5-min Rain = 0
KAM1 100947Z 27007KT 02/M08 A2981 RMK A01 T00211083  RH  046%=      5-min Rain = 0
KAM1 100948Z 27008KT 02/M08 A2981 RMK A01 T00151082  RH  048%=      5-min Rain = 0
KAM1 100949Z 27007KT 01/M08 A2981 RMK A01 T00121081  RH  050%=      5-min Rain = 0
KAM1 100950Z 26007KT 01/M08 A2981 RMK A01 T00101080  RH  051%=      5-min Rain = 0
KAM1 100951Z 25005KT 01/M08 A2981 RMK A01 T00091079  RH  052%=      5-min Rain = 0
KAM1 100952Z 24004KT 01/M08 A2981 RMK A01 T00081078  RH  052%=      5-min Rain = 0
KAM1 100953Z 24003KT 01/M08 A2981 RMK A01 T00091077  RH  053%=      5-min Rain = 0
KAM1 100954Z 25004KT 01/M08 A2981 RMK A01 T00091077  RH  053%=      5-min Rain = 0
KAM1 100955Z 25005KT 01/M08 A2981 RMK A01 T00091077  RH  053%=      5-min Rain = 0
KAM1 100956Z 25006KT 01/M08 A2982 RMK A01 T00091077  RH  053%=      5-min Rain = 0
KAM1 100957Z 25006KT 01/M08 A2982 RMK A01 T00091076  RH  053%=      5-min Rain = 0
KAM1 100958Z 25006KT 01/M08 A2981 RMK A01 T00081077  RH  053%=      5-min Rain = 0
KAM1 100959Z 25006KT 01/M08 A2981 RMK A01 T00071076  RH  054%=      5-min Rain = 0
KAM1 101000Z 25005KT 01/M07 A2981 RMK A01 T00091074  RH  054%=      5-min Rain = 0
KAM1 101001Z 26006KT 01/M07 A2982 RMK A01 T00141072  RH  053%=      5-min Rain = 0
KAM1 101002Z 26007KT 02/M07 A2982 RMK A01 T00171072  RH  052%=      5-min Rain = 0
KAM1 101003Z 27008KT 02/M07 A2982 RMK A01 T00191072  RH  051%=      5-min Rain = 0
KAM1 101004Z 26009KT 02/M07 A2982 RMK A01 T00191073  RH  050%=      5-min Rain = 0
KAM1 101005Z 26009KT 02/M07 A2982 RMK A01 T00191073  RH  050%=      5-min Rain = 0
KAM1 101006Z 26009KT 02/M07 A2982 RMK A01 T00201073  RH  050%=      5-min Rain = 0
KAM1 101007Z 26009KT 02/M07 A2982 RMK A01 T00211072  RH  050%=      5-min Rain = 0
KAM1 101008Z 25009KT 02/M07 A2982 RMK A01 T00221072  RH  050%=      5-min Rain = 0
KAM1 101009Z 25009KT 02/M07 A2982 RMK A01 T00221072  RH  050%=      5-min Rain = 0
KAM1 101010Z 25009KT 02/M07 A2982 RMK A01 T00231073  RH  049%=      5-min Rain = 0
KAM1 101011Z 25009KT 02/M07 A2982 RMK A01 T00231073  RH  049%=      5-min Rain = 0
KAM1 101012Z 25009KT 03/M07 A2982 RMK A01 T00251073  RH  048%=      5-min Rain = 0
KAM1 101013Z 25008KT 03/M07 A2982 RMK A01 T00281072  RH  048%=      5-min Rain = 0
KAM1 101014Z 25008KT 03/M07 A2982 RMK A01 T00301072  RH  047%=      5-min Rain = 0
KAM1 101015Z 25008KT 03/M07 A2982 RMK A01 T00311072  RH  047%=      5-min Rain = 0
KAM1 101016Z 25009KT 03/M07 A2983 RMK A01 T00311072  RH  047%=      5-min Rain = 0
KAM1 101017Z 25009KT 03/M07 A2983 RMK A01 T00311073  RH  046%=      5-min Rain = 0
KAM1 101018Z 25008KT 03/M07 A2983 RMK A01 T00311073  RH  046%=      5-min Rain = 0
KAM1 101019Z 25007KT 03/M07 A2983 RMK A01 T00311073  RH  046%=      5-min Rain = 0
KAM1 101020Z 25007KT 03/M07 A2983 RMK A01 T00321073  RH  046%=      5-min Rain = 0
KAM1 101021Z 26006KT 03/M07 A2983 RMK A01 T00321074  RH  046%=      5-min Rain = 0
KAM1 101022Z 27006KT 03/M07 A2983 RMK A01 T00321074  RH  046%=      5-min Rain = 0
KAM1 101023Z 28008KT 03/M07 A2983 RMK A01 T00311074  RH  046%=      5-min Rain = 0
KAM1 101024Z 28009KT 03/M07 A2983 RMK A01 T00291073  RH  047%=      5-min Rain = 0
KAM1 101025Z 28008KT 03/M07 A2983 RMK A01 T00281073  RH  047%=      5-min Rain = 0
KAM1 101026Z 28007KT 03/M08 A2983 RMK A01 T00291075  RH  047%=      5-min Rain = 0
KAM1 101027Z 27007KT 03/M08 A2983 RMK A01 T00301076  RH  046%=      5-min Rain = 0
KAM1 101028Z 26008KT 03/M08 A2983 RMK A01 T00331076  RH  045%=      5-min Rain = 0
KAM1 101029Z 25008KT 04/M08 A2983 RMK A01 T00351077  RH  044%=      5-min Rain = 0
KAM1 101030Z 24007KT 04/M08 A2983 RMK A01 T00381078  RH  043%=      5-min Rain = 0
KAM1 101031Z 24007KT 04/M08 A2983 RMK A01 T00401078  RH  042%=      5-min Rain = 0
KAM1 101032Z 24006KT 04/M08 A2983 RMK A01 T00421078  RH  041%=      5-min Rain = 0
KAM1 101033Z 26007KT 04/M08 A2983 RMK A01 T00431078  RH  041%=      5-min Rain = 0
KAM1 101034Z 28008KT 04/M08 A2983 RMK A01 T00431079  RH  041%=      5-min Rain = 0
KAM1 101035Z 27008KT 04/M08 A2983 RMK A01 T00411079  RH  041%=      5-min Rain = 0
KAM1 101036Z 27006KT 04/M08 A2983 RMK A01 T00401078  RH  042%=      5-min Rain = 0
KAM1 101037Z 28005KT 04/M08 A2983 RMK A01 T00411077  RH  042%=      5-min Rain = 0
KAM1 101038Z 27005KT 04/M08 A2983 RMK A01 T00421078  RH  041%=      5-min Rain = 0
KAM1 101039Z 27005KT 04/M08 A2983 RMK A01 T00431078  RH  041%=      5-min Rain = 0
KAM1 101040Z 27006KT 04/M08 A2983 RMK A01 T00431078  RH  041%=      5-min Rain = 0
KAM1 101041Z 27007KT 04/M08 A2983 RMK A01 T00421079  RH  041%=      5-min Rain = 0
KAM1 101042Z 27007KT 04/M08 A2983 RMK A01 T00401080  RH  041%=      5-min Rain = 0
KAM1 101043Z 27006KT 04/M08 A2983 RMK A01 T00401081  RH  041%=      5-min Rain = 0
KAM1 101044Z 27007KT 04/M08 A2983 RMK A01 T00391082  RH  041%=      5-min Rain = 0
KAM1 101045Z 27007KT 04/M08 A2983 RMK A01 T00391082  RH  041%=      5-min Rain = 0
KAM1 101046Z 28007KT 04/M08 A2983 RMK A01 T00391081  RH  041%=      5-min Rain = 0
KAM1 101047Z 28008KT 04/M08 A2983 RMK A01 T00381081  RH  042%=      5-min Rain = 0
KAM1 101048Z 27008KT 04/M08 A2983 RMK A01 T00371081  RH  042%=      5-min Rain = 0
KAM1 101049Z 27007KT 04/M08 A2983 RMK A01 T00361081  RH  042%=      5-min Rain = 0
KAM1 101050Z 27007KT 04/M08 A2983 RMK A01 T00361080  RH  042%=      5-min Rain = 0
KAM1 101051Z 27006KT 04/M08 A2983 RMK A01 T00361080  RH  042%=      5-min Rain = 0
KAM1 101052Z 27006KT 04/M08 A2983 RMK A01 T00351080  RH  043%=      5-min Rain = 0
KAM1 101053Z 27006KT 03/M08 A2983 RMK A01 T00341080  RH  043%=      5-min Rain = 0
KAM1 101054Z 27006KT 03/M08 A2983 RMK A01 T00331079  RH  044%=      5-min Rain = 0
KAM1 101055Z 27007KT 03/M08 A2983 RMK A01 T00311079  RH  044%=      5-min Rain = 0
KAM1 101056Z 28006KT 03/M08 A2983 RMK A01 T00301080  RH  044%=      5-min Rain = 0
KAM1 101057Z 27006KT 03/M08 A2983 RMK A01 T00291079  RH  045%=      5-min Rain = 0
KAM1 101058Z 28005KT 03/M08 A2983 RMK A01 T00281079  RH  045%=      5-min Rain = 0
KAM1 101059Z 27006KT 03/M08 A2983 RMK A01 T00281079  RH  045%=      5-min Rain = 0
KAM1 101100Z 27006KT 03/M08 A2983 RMK A01 T00291079  RH  045%=      5-min Rain = 0
KAM1 101101Z 27006KT 03/M08 A2983 RMK A01 T00291078  RH  045%=      5-min Rain = 0
KAM1 101102Z 27006KT 03/M08 A2983 RMK A01 T00281079  RH  045%=      5-min Rain = 0
KAM1 101103Z 27006KT 03/M08 A2983 RMK A01 T00271079  RH  046%=      5-min Rain = 0
KAM1 101104Z 27007KT 03/M08 A2983 RMK A01 T00251080  RH  046%=      5-min Rain = 0
KAM1 101105Z 27007KT 03/M08 A2983 RMK A01 T00251080  RH  046%=      5-min Rain = 0
KAM1 101106Z 27006KT 03/M08 A2983 RMK A01 T00261079  RH  046%=      5-min Rain = 0
KAM1 101107Z 27006KT 03/M08 A2983 RMK A01 T00261080  RH  045%=      5-min Rain = 0
KAM1 101108Z 27007KT 03/M08 A2983 RMK A01 T00261081  RH  045%=      5-min Rain = 0
KAM1 101109Z 27007KT 03/M08 A2983 RMK A01 T00251082  RH  045%=      5-min Rain = 0
KAM1 101110Z 27007KT 02/M08 A2983 RMK A01 T00231083  RH  045%=      5-min Rain = 0
KAM1 101111Z 27006KT 02/M08 A2983 RMK A01 T00221083  RH  046%=      5-min Rain = 0
KAM1 101112Z 27007KT 02/M08 A2983 RMK A01 T00211083  RH  046%=      5-min Rain = 0
KAM1 101113Z 27006KT 02/M08 A2983 RMK A01 T00211082  RH  046%=      5-min Rain = 0
KAM1 101114Z 27006KT 02/M08 A2983 RMK A01 T00211082  RH  047%=      5-min Rain = 0
KAM1 101115Z 27007KT 02/M08 A2984 RMK A01 T00201082  RH  047%=      5-min Rain = 0
KAM1 101116Z 28007KT 02/M08 A2984 RMK A01 T00211082  RH  047%=      5-min Rain = 0
KAM1 101117Z 27007KT 02/M08 A2984 RMK A01 T00211082  RH  046%=      5-min Rain = 0
KAM1 101118Z 28007KT 02/M08 A2984 RMK A01 T00211082  RH  046%=      5-min Rain = 0
KAM1 101119Z 28007KT 02/M08 A2984 RMK A01 T00211082  RH  046%=      5-min Rain = 0
KAM1 101120Z 28007KT 02/M08 A2984 RMK A01 T00211082  RH  046%=      5-min Rain = 0
KAM1 101121Z 28007KT 02/M08 A2984 RMK A01 T00211083  RH  046%=      5-min Rain = 0
KAM1 101122Z 28006KT 02/M08 A2984 RMK A01 T00201083  RH  046%=      5-min Rain = 0
KAM1 101123Z 28006KT 02/M08 A2984 RMK A01 T00191083  RH  047%=      5-min Rain = 0
KAM1 101124Z 28006KT 02/M08 A2984 RMK A01 T00191083  RH  047%=      5-min Rain = 0
KAM1 101125Z 28006KT 02/M08 A2984 RMK A01 T00191083  RH  047%=      5-min Rain = 0
KAM1 101126Z 28006KT 02/M08 A2984 RMK A01 T00181082  RH  047%=      5-min Rain = 0
KAM1 101127Z 28006KT 02/M08 A2983 RMK A01 T00181081  RH  048%=      5-min Rain = 0
KAM1 101128Z 27006KT 02/M08 A2983 RMK A01 T00181081  RH  048%=      5-min Rain = 0
KAM1 101129Z 27006KT 02/M08 A2983 RMK A01 T00171081  RH  048%=      5-min Rain = 0
KAM1 101130Z 27006KT 02/M08 A2983 RMK A01 T00161081  RH  048%=      5-min Rain = 0
KAM1 101131Z 27006KT 02/M08 A2983 RMK A01 T00161081  RH  049%=      5-min Rain = 0
KAM1 101132Z 27006KT 02/M08 A2983 RMK A01 T00151081  RH  049%=      5-min Rain = 0
KAM1 101133Z 26006KT 02/M08 A2983 RMK A01 T00151082  RH  049%=      5-min Rain = 0
KAM1 101134Z 26007KT 02/M08 A2983 RMK A01 T00151082  RH  049%=      5-min Rain = 0
KAM1 101135Z 26007KT 02/M08 A2983 RMK A01 T00161082  RH  048%=      5-min Rain = 0
KAM1 101136Z 26008KT 02/M08 A2983 RMK A01 T00181082  RH  048%=      5-min Rain = 0
KAM1 101137Z 25008KT 02/M08 A2983 RMK A01 T00201081  RH  047%=      5-min Rain = 0
KAM1 101138Z 26008KT 02/M08 A2983 RMK A01 T00221082  RH  046%=      5-min Rain = 0
KAM1 101139Z 26008KT 02/M08 A2983 RMK A01 T00231081  RH  046%=      5-min Rain = 0
KAM1 101140Z 26008KT 02/M08 A2983 RMK A01 T00241081  RH  046%=      5-min Rain = 0
KAM1 101141Z 26008KT 03/M08 A2983 RMK A01 T00251081  RH  045%=      5-min Rain = 0
KAM1 101142Z 26008KT 03/M08 A2983 RMK A01 T00261082  RH  045%=      5-min Rain = 0
KAM1 101143Z 25008KT 03/M08 A2983 RMK A01 T00251083  RH  045%=      5-min Rain = 0
KAM1 101144Z 26008KT 02/M08 A2983 RMK A01 T00241084  RH  045%=      5-min Rain = 0
KAM1 101145Z 26009KT 02/M09 A2983 RMK A01 T00241085  RH  045%=      5-min Rain = 0
KAM1 101146Z 26009KT 02/M09 A2983 RMK A01 T00231085  RH  045%=      5-min Rain = 0
KAM1 101147Z 25008KT 02/M09 A2983 RMK A01 T00241085  RH  045%=      5-min Rain = 0
KAM1 101148Z 25009KT 02/M09 A2983 RMK A01 T00231085  RH  044%=      5-min Rain = 0
KAM1 101149Z 25009KT 02/M09 A2983 RMK A01 T00231086  RH  044%=      5-min Rain = 0
KAM1 101150Z 25009KT 02/M09 A2983 RMK A01 T00231086  RH  044%=      5-min Rain = 0
KAM1 101151Z 26009KT 02/M09 A2983 RMK A01 T00241085  RH  044%=      5-min Rain = 0
KAM1 101152Z 26009KT 02/M09 A2983 RMK A01 T00241085  RH  044%=      5-min Rain = 0
KAM1 101153Z 26008KT 02/M09 A2983 RMK A01 T00241085  RH  044%=      5-min Rain = 0
KAM1 101154Z 25008KT 03/M09 A2983 RMK A01 T00251086  RH  044%=      5-min Rain = 0
KAM1 101155Z 26008KT 03/M09 A2983 RMK A01 T00251086  RH  044%=      5-min Rain = 0
KAM1 101156Z 25007KT 03/M09 A2983 RMK A01 T00251086  RH  044%=      5-min Rain = 0
KAM1 101157Z 25008KT 02/M09 A2983 RMK A01 T00241087  RH  044%=      5-min Rain = 0
KAM1 101158Z 25008KT 02/M09 A2983 RMK A01 T00221088  RH  044%=      5-min Rain = 0
KAM1 101159Z 25008KT 02/M09 A2983 RMK A01 T00201089  RH  044%=      5-min Rain = 0
KAM1 101200Z 25008KT 02/M09 A2983 RMK A01 T00201089  RH  044%=      5-min Rain = 0
KAM1 101201Z 25008KT 02/M09 A2983 RMK A01 T00181089  RH  045%=      5-min Rain = 0
KAM1 101202Z 25009KT 02/M09 A2983 RMK A01 T00181089  RH  045%=      5-min Rain = 0
KAM1 101203Z 25009KT 02/M09 A2983 RMK A01 T00181089  RH  045%=      5-min Rain = 0
KAM1 101204Z 25009KT 02/M09 A2983 RMK A01 T00181089  RH  045%=      5-min Rain = 0
KAM1 101205Z 25009KT 02/M09 A2983 RMK A01 T00171089  RH  045%=      5-min Rain = 0
KAM1 101206Z 25009KT 02/M09 A2983 RMK A01 T00171090  RH  045%=      5-min Rain = 0
KAM1 101207Z 25009KT 02/M09 A2983 RMK A01 T00161090  RH  045%=      5-min Rain = 0
KAM1 101208Z 25008KT 02/M09 A2983 RMK A01 T00161089  RH  045%=      5-min Rain = 0
KAM1 101209Z 25008KT 02/M09 A2983 RMK A01 T00161089  RH  046%=      5-min Rain = 0
KAM1 101210Z 25009KT 02/M09 A2983 RMK A01 T00151090  RH  046%=      5-min Rain = 0
KAM1 101211Z 25008KT 02/M09 A2983 RMK A01 T00161089  RH  046%=      5-min Rain = 0
KAM1 101212Z 25008KT 02/M09 A2983 RMK A01 T00171089  RH  045%=      5-min Rain = 0
KAM1 101213Z 25008KT 02/M09 A2983 RMK A01 T00171089  RH  045%=      5-min Rain = 0
KAM1 101214Z 25009KT 02/M09 A2983 RMK A01 T00171089  RH  045%=      5-min Rain = 0
KAM1 101215Z 25008KT 02/M09 A2983 RMK A01 T00181089  RH  045%=      5-min Rain = 0
KAM1 101216Z 25008KT 02/M09 A2983 RMK A01 T00181089  RH  045%=      5-min Rain = 0
KAM1 101217Z 25009KT 02/M09 A2983 RMK A01 T00181089  RH  045%=      5-min Rain = 0
KAM1 101218Z 25008KT 02/M09 A2983 RMK A01 T00191088  RH  045%=      5-min Rain = 0
KAM1 101219Z 25008KT 02/M09 A2983 RMK A01 T00201088  RH  044%=      5-min Rain = 0
KAM1 101220Z 25008KT 02/M09 A2983 RMK A01 T00211088  RH  044%=      5-min Rain = 0
KAM1 101221Z 25008KT 02/M09 A2983 RMK A01 T00221088  RH  044%=      5-min Rain = 0
KAM1 101222Z 25008KT 02/M09 A2983 RMK A01 T00221088  RH  044%=      5-min Rain = 0
KAM1 101223Z 25008KT 02/M09 A2983 RMK A01 T00221088  RH  044%=      5-min Rain = 0
KAM1 101224Z 25007KT 02/M09 A2983 RMK A01 T00221088  RH  044%=      5-min Rain = 0
KAM1 101225Z 25008KT 02/M09 A2983 RMK A01 T00221089  RH  044%=      5-min Rain = 0
KAM1 101226Z 25008KT 02/M09 A2983 RMK A01 T00221088  RH  044%=      5-min Rain = 0
KAM1 101227Z 25008KT 02/M09 A2983 RMK A01 T00231087  RH  044%=      5-min Rain = 0
KAM1 101228Z 25008KT 02/M09 A2983 RMK A01 T00241087  RH  044%=      5-min Rain = 0
KAM1 101229Z 25008KT 03/M09 A2983 RMK A01 T00251087  RH  043%=      5-min Rain = 0
KAM1 101230Z 25008KT 03/M09 A2983 RMK A01 T00271086  RH  043%=      5-min Rain = 0
KAM1 101231Z 25007KT 03/M09 A2983 RMK A01 T00291086  RH  042%=      5-min Rain = 0
KAM1 101232Z 25007KT 03/M09 A2983 RMK A01 T00301086  RH  042%=      5-min Rain = 0
KAM1 101233Z 25007KT 03/M09 A2983 RMK A01 T00301087  RH  042%=      5-min Rain = 0
KAM1 101234Z 25008KT 03/M09 A2983 RMK A01 T00291088  RH  042%=      5-min Rain = 0
KAM1 101235Z 25008KT 03/M09 A2983 RMK A01 T00281089  RH  042%=      5-min Rain = 0
KAM1 101236Z 25008KT 03/M09 A2983 RMK A01 T00271089  RH  042%=      5-min Rain = 0
KAM1 101237Z 25008KT 03/M09 A2983 RMK A01 T00271089  RH  042%=      5-min Rain = 0
KAM1 101238Z 26007KT 03/M09 A2983 RMK A01 T00271090  RH  042%=      5-min Rain = 0
KAM1 101239Z 26007KT 03/M09 A2983 RMK A01 T00271089  RH  042%=      5-min Rain = 0
KAM1 101240Z 26007KT 03/M09 A2983 RMK A01 T00271089  RH  042%=      5-min Rain = 0
KAM1 101241Z 26007KT 03/M09 A2983 RMK A01 T00271090  RH  042%=      5-min Rain = 0
KAM1 101242Z 25007KT 03/M09 A2983 RMK A01 T00271090  RH  042%=      5-min Rain = 0
KAM1 101243Z 25008KT 03/M09 A2983 RMK A01 T00271090  RH  042%=      5-min Rain = 0
KAM1 101244Z 26008KT 03/M09 A2983 RMK A01 T00261090  RH  042%=      5-min Rain = 0
KAM1 101245Z 25007KT 03/M09 A2983 RMK A01 T00251091  RH  042%=      5-min Rain = 0
KAM1 101246Z 25007KT 02/M09 A2983 RMK A01 T00241091  RH  042%=      5-min Rain = 0
KAM1 101247Z 25007KT 02/M09 A2983 RMK A01 T00241091  RH  042%=      5-min Rain = 0
KAM1 101248Z 25007KT 02/M09 A2983 RMK A01 T00241091  RH  042%=      5-min Rain = 0
KAM1 101249Z 25007KT 02/M09 A2983 RMK A01 T00231092  RH  042%=      5-min Rain = 0
KAM1 101250Z 25008KT 02/M09 A2983 RMK A01 T00221091  RH  043%=      5-min Rain = 0
KAM1 101251Z 25008KT 02/M09 A2983 RMK A01 T00221091  RH  043%=      5-min Rain = 0
KAM1 101252Z 25008KT 02/M09 A2983 RMK A01 T00211091  RH  043%=      5-min Rain = 0
KAM1 101253Z 25008KT 02/M09 A2983 RMK A01 T00211091  RH  043%=      5-min Rain = 0
KAM1 101254Z 25008KT 02/M09 A2983 RMK A01 T00211091  RH  043%=      5-min Rain = 0
KAM1 101255Z 25007KT 02/M09 A2983 RMK A01 T00211091  RH  043%=      5-min Rain = 0
KAM1 101256Z 26007KT 02/M09 A2983 RMK A01 T00211091  RH  044%=      5-min Rain = 0
KAM1 101257Z 26007KT 02/M09 A2983 RMK A01 T00211090  RH  044%=      5-min Rain = 0
KAM1 101258Z 26006KT 02/M09 A2983 RMK A01 T00211090  RH  044%=      5-min Rain = 0
KAM1 101259Z 26006KT 02/M09 A2983 RMK A01 T00201090  RH  044%=      5-min Rain = 0
KAM1 101300Z 26006KT 02/M09 A2983 RMK A01 T00201091  RH  044%=      5-min Rain = 0
KAM1 101301Z 26006KT 02/M09 A2983 RMK A01 T00201090  RH  044%=      5-min Rain = 0
KAM1 101302Z 25006KT 02/M09 A2983 RMK A01 T00191090  RH  044%=      5-min Rain = 0
KAM1 101303Z 26006KT 02/M09 A2983 RMK A01 T00191090  RH  044%=      5-min Rain = 0
KAM1 101304Z 25006KT 02/M09 A2983 RMK A01 T00191090  RH  044%=      5-min Rain = 0
KAM1 101305Z 25006KT 02/M09 A2983 RMK A01 T00201089  RH  044%=      5-min Rain = 0
KAM1 101306Z 25006KT 02/M09 A2983 RMK A01 T00191089  RH  044%=      5-min Rain = 0
KAM1 101307Z 25006KT 02/M09 A2983 RMK A01 T00201089  RH  044%=      5-min Rain = 0
KAM1 101308Z 25005KT 02/M09 A2983 RMK A01 T00201089  RH  044%=      5-min Rain = 0
KAM1 101309Z 25006KT 02/M09 A2983 RMK A01 T00201089  RH  044%=      5-min Rain = 0
KAM1 101310Z 25006KT 02/M09 A2983 RMK A01 T00201088  RH  044%=      5-min Rain = 0
KAM1 101311Z 25006KT 02/M09 A2983 RMK A01 T00201089  RH  044%=      5-min Rain = 0
KAM1 101312Z 25006KT 02/M09 A2983 RMK A01 T00211089  RH  044%=      5-min Rain = 0
KAM1 101313Z 25006KT 02/M09 A2983 RMK A01 T00201090  RH  044%=      5-min Rain = 0
KAM1 101314Z 25006KT 02/M09 A2983 RMK A01 T00211090  RH  044%=      5-min Rain = 0
KAM1 101315Z 25006KT 02/M09 A2983 RMK A01 T00211090  RH  044%=      5-min Rain = 0
KAM1 101316Z 25006KT 02/M09 A2983 RMK A01 T00211090  RH  044%=      5-min Rain = 0
KAM1 101317Z 25007KT 02/M09 A2983 RMK A01 T00211090  RH  044%=      5-min Rain = 0
KAM1 101318Z 25007KT 02/M09 A2983 RMK A01 T00211090  RH  044%=      5-min Rain = 0
KAM1 101319Z 25007KT 02/M09 A2983 RMK A01 T00211091  RH  043%=      5-min Rain = 0
KAM1 101320Z 24007KT 02/M09 A2983 RMK A01 T00211091  RH  043%=      5-min Rain = 0
KAM1 101321Z 24007KT 02/M09 A2983 RMK A01 T00211091  RH  043%=      5-min Rain = 0
KAM1 101322Z 24007KT 02/M09 A2983 RMK A01 T00211091  RH  043%=      5-min Rain = 0
KAM1 101323Z 24007KT 02/M09 A2983 RMK A01 T00211091  RH  043%=      5-min Rain = 0
KAM1 101324Z 24007KT 02/M09 A2983 RMK A01 T00211091  RH  043%=      5-min Rain = 0
KAM1 101325Z 24007KT 02/M09 A2983 RMK A01 T00211091  RH  043%=      5-min Rain = 0
KAM1 101326Z 24007KT 02/M09 A2983 RMK A01 T00201091  RH  043%=      5-min Rain = 0
KAM1 101327Z 24007KT 02/M09 A2983 RMK A01 T00211091  RH  043%=      5-min Rain = 0
KAM1 101328Z 24007KT 02/M09 A2983 RMK A01 T00201091  RH  043%=      5-min Rain = 0
KAM1 101329Z 24007KT 02/M09 A2983 RMK A01 T00201091  RH  044%=      5-min Rain = 0
KAM1 101330Z 24008KT 02/M09 A2983 RMK A01 T00201091  RH  044%=      5-min Rain = 0
KAM1 101331Z 24008KT 02/M09 A2983 RMK A01 T00211091  RH  044%=      5-min Rain = 0
KAM1 101332Z 24008KT 02/M09 A2983 RMK A01 T00211090  RH  044%=      5-min Rain = 0
KAM1 101333Z 24008KT 02/M09 A2983 RMK A01 T00211090  RH  044%=      5-min Rain = 0
KAM1 101334Z 24008KT 02/M09 A2983 RMK A01 T00201090  RH  044%=      5-min Rain = 0
KAM1 101335Z 24007KT 02/M09 A2983 RMK A01 T00201090  RH  044%=      5-min Rain = 0
KAM1 101336Z 24007KT 02/M09 A2983 RMK A01 T00201090  RH  044%=      5-min Rain = 0
KAM1 101337Z 24007KT 02/M09 A2983 RMK A01 T00201090  RH  044%=      5-min Rain = 0
KAM1 101338Z 24007KT 02/M09 A2983 RMK A01 T00191090  RH  044%=      5-min Rain = 0
KAM1 101339Z 24007KT 02/M09 A2983 RMK A01 T00191090  RH  044%=      5-min Rain = 0
KAM1 101340Z 24007KT 02/M09 A2983 RMK A01 T00191090  RH  044%=      5-min Rain = 0
KAM1 101341Z 24006KT 02/M09 A2983 RMK A01 T00191090  RH  044%=      5-min Rain = 0
KAM1 101342Z 24006KT 02/M09 A2983 RMK A01 T00191090  RH  044%=      5-min Rain = 0
KAM1 101343Z 24006KT 02/M09 A2982 RMK A01 T00191089  RH  044%=      5-min Rain = 0
KAM1 101344Z 24006KT 02/M09 A2982 RMK A01 T00191089  RH  044%=      5-min Rain = 0
KAM1 101345Z 24006KT 02/M09 A2982 RMK A01 T00191089  RH  045%=      5-min Rain = 0
KAM1 101346Z 24006KT 02/M09 A2982 RMK A01 T00201089  RH  044%=      5-min Rain = 0
KAM1 101347Z 23006KT 02/M09 A2982 RMK A01 T00201089  RH  044%=      5-min Rain = 0
KAM1 101348Z 24006KT 02/M09 A2982 RMK A01 T00221088  RH  044%=      5-min Rain = 0
KAM1 101349Z 24006KT 02/M09 A2982 RMK A01 T00231088  RH  044%=      5-min Rain = 0
KAM1 101350Z 23007KT 02/M09 A2982 RMK A01 T00241088  RH  044%=      5-min Rain = 0
KAM1 101351Z 24006KT 03/M09 A2982 RMK A01 T00251087  RH  043%=      5-min Rain = 0
KAM1 101352Z 24006KT 03/M09 A2982 RMK A01 T00271086  RH  043%=      5-min Rain = 0
KAM1 101353Z 23006KT 03/M09 A2982 RMK A01 T00281086  RH  043%=      5-min Rain = 0
KAM1 101354Z 24006KT 03/M09 A2982 RMK A01 T00301085  RH  043%=      5-min Rain = 0
KAM1 101355Z 24006KT 03/M09 A2982 RMK A01 T00311085  RH  042%=      5-min Rain = 0
KAM1 101356Z 24006KT 03/M09 A2982 RMK A01 T00331085  RH  042%=      5-min Rain = 0
KAM1 101357Z 24006KT 03/M09 A2982 RMK A01 T00341085  RH  041%=      5-min Rain = 0
KAM1 101358Z 24006KT 04/M09 A2982 RMK A01 T00351085  RH  041%=      5-min Rain = 0
KAM1 101359Z 24006KT 04/M09 A2982 RMK A01 T00361085  RH  041%=      5-min Rain = 0
KAM1 101400Z 24006KT 04/M09 A2982 RMK A01 T00371085  RH  041%=      5-min Rain = 0
KAM1 101401Z 24006KT 04/M08 A2982 RMK A01 T00381084  RH  041%=      5-min Rain = 0
KAM1 101402Z 24006KT 04/M08 A2982 RMK A01 T00381084  RH  040%=      5-min Rain = 0
KAM1 101403Z 24006KT 04/M08 A2982 RMK A01 T00391084  RH  040%=      5-min Rain = 0
KAM1 101404Z 24006KT 04/M09 A2982 RMK A01 T00401085  RH  040%=      5-min Rain = 0
KAM1 101405Z 24006KT 04/M09 A2982 RMK A01 T00411085  RH  039%=      5-min Rain = 0
KAM1 101406Z 24006KT 04/M08 A2982 RMK A01 T00421084  RH  039%=      5-min Rain = 0
KAM1 101407Z 25006KT 04/M09 A2982 RMK A01 T00431085  RH  039%=      5-min Rain = 0
KAM1 101408Z 24006KT 04/M09 A2983 RMK A01 T00441085  RH  039%=      5-min Rain = 0
KAM1 101409Z 25006KT 05/M09 A2983 RMK A01 T00451085  RH  038%=      5-min Rain = 0
KAM1 101410Z 25006KT 05/M09 A2983 RMK A01 T00461085  RH  038%=      5-min Rain = 0
KAM1 101411Z 25006KT 05/M09 A2983 RMK A01 T00471086  RH  038%=      5-min Rain = 0
KAM1 101412Z 25006KT 05/M09 A2983 RMK A01 T00481086  RH  037%=      5-min Rain = 0
KAM1 101413Z 26006KT 05/M09 A2983 RMK A01 T00481087  RH  037%=      5-min Rain = 0
KAM1 101414Z 25006KT 05/M09 A2983 RMK A01 T00491087  RH  037%=      5-min Rain = 0
KAM1 101415Z 26006KT 05/M09 A2983 RMK A01 T00501087  RH  036%=      5-min Rain = 0
KAM1 101416Z 26006KT 05/M09 A2983 RMK A01 T00501087  RH  036%=      5-min Rain = 0
KAM1 101417Z 26006KT 05/M09 A2983 RMK A01 T00511087  RH  036%=      5-min Rain = 0
KAM1 101418Z 25006KT 05/M09 A2983 RMK A01 T00521085  RH  036%=      5-min Rain = 0
KAM1 101419Z 26005KT 05/M08 A2983 RMK A01 T00521084  RH  037%=      5-min Rain = 0
KAM1 101420Z 25007KT 05/M08 A2983 RMK A01 T00531084  RH  037%=      5-min Rain = 0
KAM1 101421Z 25007KT 05/M08 A2983 RMK A01 T00531084  RH  036%=      5-min Rain = 0
KAM1 101422Z 25007KT 05/M09 A2983 RMK A01 T00531085  RH  036%=      5-min Rain = 0
KAM1 101423Z 25007KT 05/M09 A2983 RMK A01 T00531085  RH  036%=      5-min Rain = 0
KAM1 101424Z 25008KT 05/M09 A2983 RMK A01 T00541085  RH  036%=      5-min Rain = 0
KAM1 101425Z 26007KT 05/M08 A2983 RMK A01 T00541084  RH  036%=      5-min Rain = 0
KAM1 101426Z 26007KT 05/M08 A2983 RMK A01 T00541084  RH  036%=      5-min Rain = 0
KAM1 101427Z 26008KT 06/M08 A2983 RMK A01 T00561084  RH  036%=      5-min Rain = 0
KAM1 101428Z 26008KT 06/M08 A2983 RMK A01 T00581084  RH  035%=      5-min Rain = 0
KAM1 101429Z 26007KT 06/M08 A2983 RMK A01 T00601083  RH  035%=      5-min Rain = 0
KAM1 101430Z 26007KT 06/M08 A2983 RMK A01 T00621082  RH  035%=      5-min Rain = 0
KAM1 101431Z 26007KT 07/M08 A2983 RMK A01 T00651081  RH  034%=      5-min Rain = 0
KAM1 101432Z 26007KT 07/M08 A2983 RMK A01 T00671080  RH  034%=      5-min Rain = 0
KAM1 101433Z 26008KT 07/M08 A2983 RMK A01 T00701079  RH  034%=      5-min Rain = 0
KAM1 101434Z 26008KT 07/M08 A2983 RMK A01 T00721080  RH  033%=      5-min Rain = 0
KAM1 101435Z 26008KT 08/M08 A2983 RMK A01 T00751080  RH  032%=      5-min Rain = 0
KAM1 101436Z 26010KT 08/M08 A2983 RMK A01 T00781080  RH  032%=      5-min Rain = 0
KAM1 101437Z 26009KT 08/M08 A2983 RMK A01 T00791084  RH  031%=      5-min Rain = 0
KAM1 101438Z 27007KT 08/M08 A2983 RMK A01 T00801082  RH  031%=      5-min Rain = 0
KAM1 101439Z 27008KT 08/M08 A2983 RMK A01 T00831081  RH  030%=      5-min Rain = 0
KAM1 101440Z 27009KT 09/M08 A2983 RMK A01 T00851083  RH  029%=      5-min Rain = 0
KAM1 101441Z 27009KT 09/M09 A2983 RMK A01 T00861085  RH  029%=      5-min Rain = 0
KAM1 101442Z 27008KT 09/M09 A2983 RMK A01 T00871086  RH  028%=      5-min Rain = 0
KAM1 101443Z 28008KT 09/M08 A2983 RMK A01 T00881084  RH  029%=      5-min Rain = 0
KAM1 101444Z 27008KT 09/M09 A2984 RMK A01 T00891085  RH  028%=      5-min Rain = 0
KAM1 101445Z 28008KT 09/M08 A2984 RMK A01 T00911082  RH  029%=      5-min Rain = 0
KAM1 101446Z 28008KT 09/M08 A2984 RMK A01 T00931082  RH  028%=      5-min Rain = 0
KAM1 101447Z 27007KT 10/M08 A2984 RMK A01 T00951083  RH  028%=      5-min Rain = 0
KAM1 101448Z 26007KT 10/M08 A2984 RMK A01 T00971082  RH  027%=      5-min Rain = 0
KAM1 101449Z 27008KT 10/M08 A2984 RMK A01 T00991083  RH  027%=      5-min Rain = 0
KAM1 101450Z 26007KT 10/M08 A2984 RMK A01 T01011084  RH  026%=      5-min Rain = 0
KAM1 101451Z 26007KT 10/M08 A2984 RMK A01 T01031082  RH  026%=      5-min Rain = 0
KAM1 101452Z 27007KT 10/M08 A2984 RMK A01 T01041083  RH  026%=      5-min Rain = 0
KAM1 101453Z 27007KT 11/M08 A2984 RMK A01 T01061084  RH  025%=      5-min Rain = 0
KAM1 101454Z 27007KT 11/M09 A2984 RMK A01 T01081087  RH  024%=      5-min Rain = 0
KAM1 101455Z 26006KT 11/M09 A2984 RMK A01 T01091090  RH  024%=      5-min Rain = 0
KAM1 101456Z 28005KT 11/M09 A2984 RMK A01 T01111089  RH  024%=      5-min Rain = 0
KAM1 101457Z 27005KT 11/M09 A2984 RMK A01 T01131089  RH  023%=      5-min Rain = 0
KAM1 101458Z 26004KT 11/M09 A2984 RMK A01 T01141087  RH  023%=      5-min Rain = 0
KAM1 101459Z 26004KT 12/M09 A2984 RMK A01 T01151085  RH  024%=      5-min Rain = 0
KAM1 101500Z 28006KT 12/M09 A2984 RMK A01 T01181085  RH  023%=      5-min Rain = 0
KAM1 101501Z 28005KT 12/M09 A2984 RMK A01 T01201090  RH  022%=      5-min Rain = 0
KAM1 101502Z 28005KT 12/M09 A2984 RMK A01 T01231093  RH  021%=      5-min Rain = 0
KAM1 101503Z 28007KT 13/M09 A2984 RMK A01 T01261094  RH  021%=      5-min Rain = 0
KAM1 101504Z 28006KT 13/M10 A2984 RMK A01 T01291096  RH  020%=      5-min Rain = 0
KAM1 101505Z 28008KT 13/M10 A2984 RMK A01 T01331095  RH  020%=      5-min Rain = 0
KAM1 101506Z 29008KT 14/M10 A2984 RMK A01 T01371098  RH  019%=      5-min Rain = 0
KAM1 101507Z 29010KT 14/M10 A2984 RMK A01 T01391100  RH  018%=      5-min Rain = 0
KAM1 101508Z 29008KT 14/M10 A2984 RMK A01 T01401103  RH  018%=      5-min Rain = 0
KAM1 101509Z 29008KT 14/M10 A2984 RMK A01 T01401103  RH  018%=      5-min Rain = 0
KAM1 101510Z 30009KT 14/M10 A2984 RMK A01 T01411102  RH  018%=      5-min Rain = 0
KAM1 101511Z 29010KT 14/M10 A2984 RMK A01 T01431103  RH  017%=      5-min Rain = 0
KAM1 101512Z 29008KT 14/M11 A2984 RMK A01 T01441105  RH  017%=      5-min Rain = 0
KAM1 101513Z 30007KT 15/M10 A2984 RMK A01 T01451103  RH  017%=      5-min Rain = 0
KAM1 101514Z 32010KT 15/M10 A2984 RMK A01 T01471102  RH  017%=      5-min Rain = 0
KAM1 101515Z 32009KT 15/M10 A2984 RMK A01 T01481103  RH  017%=      5-min Rain = 0
KAM1 101516Z 31010KT 15/M10 A2984 RMK A01 T01491104  RH  016%=      5-min Rain = 0
KAM1 101517Z 31008KT 15/M10 A2984 RMK A01 T01501103  RH  016%=      5-min Rain = 0
KAM1 101518Z 32008KT 15/M10 A2984 RMK A01 T01511103  RH  016%=      5-min Rain = 0
KAM1 101519Z 32009KT 15/M11 A2984 RMK A01 T01511105  RH  016%=      5-min Rain = 0
KAM1 101520Z 32009KT 15/M11 A2984 RMK A01 T01491107  RH  016%=      5-min Rain = 0
KAM1 101521Z 31011KT 15/M11 A2984 RMK A01 T01481107  RH  016%=      5-min Rain = 0
KAM1 101522Z 31011KT 15/M11 A2984 RMK A01 T01481109  RH  016%=      5-min Rain = 0
KAM1 101523Z 30010KT 15/M11 A2984 RMK A01 T01481109  RH  016%=      5-min Rain = 0
KAM1 101524Z 30009KT 15/M11 A2984 RMK A01 T01471108  RH  016%=      5-min Rain = 0
KAM1 101525Z 30008KT 15/M11 A2984 RMK A01 T01471109  RH  016%=      5-min Rain = 0
KAM1 101526Z 30008KT 15/M11 A2984 RMK A01 T01471105  RH  016%=      5-min Rain = 0
KAM1 101527Z 32007KT 15/M10 A2984 RMK A01 T01501104  RH  016%=      5-min Rain = 0
KAM1 101528Z 32009KT 15/M11 A2984 RMK A01 T01511106  RH  016%=      5-min Rain = 0
KAM1 101529Z 32007KT 15/M11 A2984 RMK A01 T01531105  RH  016%=      5-min Rain = 0
KAM1 101530Z 31009KT 15/M11 A2984 RMK A01 T01541106  RH  016%=      5-min Rain = 0
KAM1 101531Z 32009KT 15/M11 A2984 RMK A01 T01541107  RH  016%=      5-min Rain = 0
KAM1 101532Z 32010KT 15/M11 A2984 RMK A01 T01541106  RH  016%=      5-min Rain = 0
KAM1 101533Z 32009KT 15/M11 A2984 RMK A01 T01541107  RH  015%=      5-min Rain = 0
KAM1 101534Z 32007KT 15/M11 A2984 RMK A01 T01541107  RH  015%=      5-min Rain = 0
KAM1 101535Z 32008KT 16/M11 A2984 RMK A01 T01551106  RH  016%=      5-min Rain = 0
KAM1 101536Z 31007KT 16/M11 A2984 RMK A01 T01571106  RH  015%=      5-min Rain = 0
KAM1 101537Z 32007KT 16/M11 A2984 RMK A01 T01571107  RH  015%=      5-min Rain = 0
KAM1 101538Z 32007KT 16/M10 A2984 RMK A01 T01581103  RH  016%=      5-min Rain = 0
KAM1 101539Z 32008KT 16/M10 A2984 RMK A01 T01611104  RH  015%=      5-min Rain = 0
KAM1 101540Z 32008KT 16/M11 A2984 RMK A01 T01601107  RH  015%=      5-min Rain = 0
KAM1 101541Z 32008KT 16/M11 A2984 RMK A01 T01581108  RH  015%=      5-min Rain = 0
KAM1 101542Z 33008KT 16/M11 A2984 RMK A01 T01581109  RH  015%=      5-min Rain = 0
KAM1 101543Z 32006KT 16/M11 A2984 RMK A01 T01571110  RH  015%=      5-min Rain = 0
KAM1 101544Z 32007KT 16/M11 A2984 RMK A01 T01571108  RH  015%=      5-min Rain = 0
KAM1 101545Z 32006KT 16/M11 A2984 RMK A01 T01591107  RH  015%=      5-min Rain = 0
KAM1 101546Z 32009KT 16/M11 A2984 RMK A01 T01601108  RH  015%=      5-min Rain = 0
KAM1 101547Z 32008KT 16/M11 A2984 RMK A01 T01631109  RH  014%=      5-min Rain = 0
KAM1 101548Z 32009KT 17/M11 A2984 RMK A01 T01661110  RH  014%=      5-min Rain = 0
KAM1 101549Z 32008KT 17/M11 A2984 RMK A01 T01671112  RH  014%=      5-min Rain = 0
KAM1 101550Z 32010KT 17/M11 A2984 RMK A01 T01681113  RH  014%=      5-min Rain = 0
KAM1 101551Z 32007KT 17/M12 A2984 RMK A01 T01681115  RH  013%=      5-min Rain = 0
KAM1 101552Z 32010KT 17/M12 A2984 RMK A01 T01691115  RH  013%=      5-min Rain = 0
KAM1 101553Z 32008KT 17/M12 A2984 RMK A01 T01701115  RH  013%=      5-min Rain = 0
KAM1 101554Z 32007KT 17/M11 A2985 RMK A01 T01691114  RH  013%=      5-min Rain = 0
KAM1 101555Z 32010KT 17/M12 A2985 RMK A01 T01721116  RH  013%=      5-min Rain = 0
KAM1 101556Z 32011KT 17/M12 A2985 RMK A01 T01741120  RH  012%=      5-min Rain = 0
KAM1 101557Z 32011KT 18/M12 A2985 RMK A01 T01751122  RH  012%=      5-min Rain = 0
KAM1 101558Z 31013KT 18/M12 A2985 RMK A01 T01771122  RH  012%=      5-min Rain = 0
KAM1 101559Z 32015KT 18/M12 A2985 RMK A01 T01781122  RH  012%=      5-min Rain = 0
KAM1 101600Z 32016KT 18/M13 A2985 RMK A01 T01771126  RH  012%=      5-min Rain = 0
KAM1 101601Z 31014KT 18/M13 A2985 RMK A01 T01761128  RH  011%=      5-min Rain = 0
KAM1 101602Z 31014KT 18/M13 A2985 RMK A01 T01761127  RH  012%=      5-min Rain = 0
KAM1 101603Z 30013KT 18/M13 A2985 RMK A01 T01761128  RH  011%=      5-min Rain = 0
KAM1 101604Z 30014KT 18/M13 A2985 RMK A01 T01751127  RH  012%=      5-min Rain = 0
KAM1 101605Z 30012KT 18/M13 A2985 RMK A01 T01751127  RH  012%=      5-min Rain = 0
KAM1 101606Z 30011KT 18/M13 A2985 RMK A01 T01761125  RH  012%=      5-min Rain = 0
KAM1 101607Z 32012KT 18/M12 A2985 RMK A01 T01791123  RH  012%=      5-min Rain = 0
KAM1 101608Z 32013KT 18/M12 A2985 RMK A01 T01801123  RH  012%=      5-min Rain = 0
KAM1 101609Z 33011KT 18/M13 A2985 RMK A01 T01791125  RH  012%=      5-min Rain = 0
KAM1 101610Z 34011KT 18/M12 A2985 RMK A01 T01791124  RH  012%=      5-min Rain = 0
KAM1 101611Z 33012G17KT 18/M12 A2985 RMK A01 T01811123  RH  011%=      5-min Rain = 0
KAM1 101612Z 33014KT 18/M13 A2985 RMK A01 T01811125  RH  011%=      5-min Rain = 0
KAM1 101613Z 32015KT 18/M13 A2985 RMK A01 T01801125  RH  011%=      5-min Rain = 0
KAM1 101614Z 32012KT 18/M13 A2985 RMK A01 T01771127  RH  011%=      5-min Rain = 0
KAM1 101615Z 31011KT 18/M13 A2985 RMK A01 T01781125  RH  012%=      5-min Rain = 0
KAM1 101616Z 31012KT 18/M12 A2985 RMK A01 T01801122  RH  012%=      5-min Rain = 0
KAM1 101617Z 30013KT 18/M13 A2984 RMK A01 T01811125  RH  011%=      5-min Rain = 0
KAM1 101618Z 31012KT 18/M13 A2984 RMK A01 T01801126  RH  011%=      5-min Rain = 0
KAM1 101619Z 32011KT 18/M13 A2984 RMK A01 T01801125  RH  011%=      5-min Rain = 0
KAM1 101620Z 31012KT 18/M12 A2984 RMK A01 T01821123  RH  011%=      5-min Rain = 0
KAM1 101621Z 31012G17KT 18/M12 A2984 RMK A01 T01831124  RH  011%=      5-min Rain = 0
KAM1 101622Z 31013KT 18/M12 A2984 RMK A01 T01831124  RH  011%=      5-min Rain = 0
KAM1 101623Z 33010KT 18/M12 A2984 RMK A01 T01841123  RH  011%=      5-min Rain = 0
KAM1 101624Z 33013KT 19/M12 A2984 RMK A01 T01861123  RH  011%=      5-min Rain = 0
KAM1 101625Z 33012KT 18/M13 A2984 RMK A01 T01841129  RH  011%=      5-min Rain = 0
KAM1 101626Z 33010KT 18/M13 A2984 RMK A01 T01841127  RH  011%=      5-min Rain = 0
KAM1 101627Z 33009KT 19/M13 A2984 RMK A01 T01851126  RH  011%=      5-min Rain = 0
KAM1 101628Z 32011KT 19/M12 A2984 RMK A01 T01871124  RH  011%=      5-min Rain = 0
KAM1 101629Z 32011KT 19/M13 A2984 RMK A01 T01881125  RH  011%=      5-min Rain = 0
KAM1 101630Z 31008KT 19/M13 A2984 RMK A01 T01871127  RH  011%=      5-min Rain = 0
KAM1 101631Z 33010KT 19/M13 A2985 RMK A01 T01881125  RH  011%=      5-min Rain = 0
KAM1 101632Z 32012KT 19/M13 A2985 RMK A01 T01891128  RH  010%=      5-min Rain = 0
KAM1 101633Z 31010KT 19/M13 A2985 RMK A01 T01871128  RH  011%=      5-min Rain = 0
KAM1 101634Z 33010G16KT 19/M13 A2985 RMK A01 T01861127  RH  011%=      5-min Rain = 0
KAM1 101635Z 33013KT 19/M13 A2985 RMK A01 T01871129  RH  011%=      5-min Rain = 0
KAM1 101636Z 32011KT 19/M13 A2985 RMK A01 T01861130  RH  011%=      5-min Rain = 0
KAM1 101637Z 33012KT 19/M13 A2985 RMK A01 T01851130  RH  011%=      5-min Rain = 0
KAM1 101638Z 34012KT 19/M13 A2985 RMK A01 T01851129  RH  011%=      5-min Rain = 0
KAM1 101639Z 34013KT 19/M13 A2985 RMK A01 T01851128  RH  011%=      5-min Rain = 0
KAM1 101640Z 33014KT 19/M13 A2985 RMK A01 T01871129  RH  011%=      5-min Rain = 0
KAM1 101641Z 31011KT 19/M13 A2985 RMK A01 T01871132  RH  010%=      5-min Rain = 0
KAM1 101642Z 30010KT 19/M13 A2985 RMK A01 T01881132  RH  010%=      5-min Rain = 0
KAM1 101643Z 34009KT 19/M13 A2985 RMK A01 T01891129  RH  010%=      5-min Rain = 0
KAM1 101644Z 34010KT 19/M13 A2985 RMK A01 T01911127  RH  010%=      5-min Rain = 0
KAM1 101645Z 33010KT 19/M13 A2985 RMK A01 T01911128  RH  010%=      5-min Rain = 0
KAM1 101646Z 33011KT 19/M13 A2985 RMK A01 T01911128  RH  010%=      5-min Rain = 0
KAM1 101647Z 32013KT 19/M13 A2985 RMK A01 T01911129  RH  010%=      5-min Rain = 0
KAM1 101648Z 33013KT 19/M13 A2985 RMK A01 T01901131  RH  010%=      5-min Rain = 0
KAM1 101649Z 32013KT 19/M13 A2985 RMK A01 T01901131  RH  010%=      5-min Rain = 0
KAM1 101650Z 33010KT 19/M13 A2985 RMK A01 T01891133  RH  010%=      5-min Rain = 0
KAM1 101651Z 32013KT 19/M13 A2985 RMK A01 T01901132  RH  010%=      5-min Rain = 0
KAM1 101652Z 32012KT 19/M14 A2984 RMK A01 T01901135  RH  010%=      5-min Rain = 0
KAM1 101653Z 33011KT 19/M14 A2984 RMK A01 T01891136  RH  010%=      5-min Rain = 0
KAM1 101654Z 32010KT 19/M13 A2984 RMK A01 T01881134  RH  010%=      5-min Rain = 0
KAM1 101655Z 31010KT 19/M13 A2984 RMK A01 T01891133  RH  010%=      5-min Rain = 0
KAM1 101656Z 32010KT 19/M13 A2984 RMK A01 T01901132  RH  010%=      5-min Rain = 0
KAM1 101657Z 31011KT 19/M13 A2984 RMK A01 T01921132  RH  010%=      5-min Rain = 0
KAM1 101658Z 30011KT 19/M13 A2984 RMK A01 T01931134  RH  010%=      5-min Rain = 0
KAM1 101659Z 31011KT 19/M13 A2984 RMK A01 T01931133  RH  010%=      5-min Rain = 0
KAM1 101700Z 32013G18KT 20/M13 A2984 RMK A01 T01951131  RH  010%=      5-min Rain = 0
KAM1 101701Z 32014KT 20/M13 A2985 RMK A01 T01971132  RH  010%=      5-min Rain = 0
KAM1 101702Z 32012KT 20/M14 A2985 RMK A01 T01961137  RH  009%=      5-min Rain = 0
KAM1 101703Z 30013KT 20/M14 A2985 RMK A01 T01951138  RH  009%=      5-min Rain = 0
KAM1 101704Z 30014KT 20/M14 A2985 RMK A01 T01951138  RH  009%=      5-min Rain = 0
KAM1 101705Z 30013KT 20/M14 A2985 RMK A01 T01951139  RH  009%=      5-min Rain = 0
KAM1 101706Z 29012KT 20/M14 A2985 RMK A01 T01951139  RH  009%=      5-min Rain = 0
KAM1 101707Z 29009KT 20/M14 A2985 RMK A01 T01961135  RH  009%=      5-min Rain = 0
KAM1 101708Z 30010KT 20/M13 A2985 RMK A01 T01991132  RH  010%=      5-min Rain = 0
KAM1 101709Z 30013KT 20/M13 A2985 RMK A01 T02011131  RH  009%=      5-min Rain = 0
KAM1 101710Z 29014KT 20/M13 A2985 RMK A01 T02021134  RH  009%=      5-min Rain = 0
KAM1 101711Z 30011KT 20/M14 A2985 RMK A01 T02011136  RH  009%=      5-min Rain = 0
KAM1 101712Z 31011KT 20/M13 A2985 RMK A01 T02011134  RH  009%=      5-min Rain = 0
KAM1 101713Z 31010KT 20/M13 A2985 RMK A01 T02031132  RH  009%=      5-min Rain = 0
KAM1 101714Z 32010KT 20/M14 A2984 RMK A01 T02031137  RH  009%=      5-min Rain = 0
KAM1 101715Z 30008KT 20/M14 A2984 RMK A01 T02001136  RH  009%=      5-min Rain = 0
KAM1 101716Z 29010KT 20/M13 A2984 RMK A01 T02021131  RH  009%=      5-min Rain = 0
KAM1 101717Z 32008KT 21/M13 A2984 RMK A01 T02051130  RH  009%=      5-min Rain = 0
KAM1 101718Z 31011KT 21/M13 A2984 RMK A01 T02071133  RH  009%=      5-min Rain = 0
KAM1 101719Z 32012KT 21/M13 A2984 RMK A01 T02091133  RH  009%=      5-min Rain = 0
KAM1 101720Z 31012KT 21/M13 A2984 RMK A01 T02091134  RH  009%=      5-min Rain = 0
KAM1 101721Z 30011KT 21/M14 A2984 RMK A01 T02061139  RH  009%=      5-min Rain = 0
KAM1 101722Z 30009KT 20/M14 A2984 RMK A01 T02041140  RH  009%=      5-min Rain = 0
KAM1 101723Z 30012KT 20/M14 A2984 RMK A01 T02041135  RH  009%=      5-min Rain = 0
KAM1 101724Z 31013KT 21/M14 A2984 RMK A01 T02061139  RH  009%=      5-min Rain = 0
KAM1 101725Z 30009KT 21/M14 A2984 RMK A01 T02051142  RH  009%=      5-min Rain = 0
KAM1 101726Z 31009KT 20/M14 A2984 RMK A01 T02031138  RH  009%=      5-min Rain = 0
KAM1 101727Z 31010KT 20/M14 A2984 RMK A01 T02041135  RH  009%=      5-min Rain = 0
KAM1 101728Z 31010KT 20/M14 A2984 RMK A01 T02041135  RH  009%=      5-min Rain = 0
KAM1 101729Z 30009KT 21/M14 A2984 RMK A01 T02051136  RH  009%=      5-min Rain = 0
KAM1 101730Z 31008KT 21/M13 A2984 RMK A01 T02061134  RH  009%=      5-min Rain = 0
KAM1 101731Z 32009KT 21/M14 A2984 RMK A01 T02101135  RH  009%=      5-min Rain = 0
KAM1 101732Z 30008KT 21/M13 A2984 RMK A01 T02101134  RH  009%=      5-min Rain = 0
KAM1 101733Z 32009KT 21/M13 A2984 RMK A01 T02111134  RH  009%=      5-min Rain = 0
KAM1 101734Z 33008KT 21/M13 A2984 RMK A01 T02121134  RH  009%=      5-min Rain = 0
KAM1 101735Z 33009KT 21/M14 A2984 RMK A01 T02121135  RH  009%=      5-min Rain = 0
KAM1 101736Z 33012KT 21/M14 A2984 RMK A01 T02121136  RH  009%=      5-min Rain = 0
KAM1 101737Z 33009KT 21/M14 A2984 RMK A01 T02131138  RH  008%=      5-min Rain = 0
KAM1 101738Z 34012KT 21/M14 A2983 RMK A01 T02131140  RH  008%=      5-min Rain = 0
KAM1 101739Z 33009KT 21/M14 A2983 RMK A01 T02121140  RH  008%=      5-min Rain = 0
KAM1 101740Z 32011KT 22/M13 A2983 RMK A01 T02151134  RH  009%=      5-min Rain = 0
KAM1 101741Z 32011KT 22/M14 A2983 RMK A01 T02161139  RH  008%=      5-min Rain = 0
KAM1 101742Z 30009KT 22/M14 A2983 RMK A01 T02161138  RH  008%=      5-min Rain = 0
KAM1 101743Z 33011KT 22/M14 A2983 RMK A01 T02161138  RH  008%=      5-min Rain = 0
KAM1 101744Z 34012KT 22/M14 A2983 RMK A01 T02151142  RH  008%=      5-min Rain = 0
KAM1 101745Z 32013KT 21/M14 A2983 RMK A01 T02141142  RH  008%=      5-min Rain = 0
KAM1 101746Z 33013KT 22/M14 A2983 RMK A01 T02151143  RH  008%=      5-min Rain = 0
KAM1 101747Z 32010KT 21/M14 A2983 RMK A01 T02131142  RH  008%=      5-min Rain = 0
KAM1 101748Z 33013KT 21/M14 A2983 RMK A01 T02141141  RH  008%=      5-min Rain = 0
KAM1 101749Z 33013KT 22/M14 A2983 RMK A01 T02161138  RH  008%=      5-min Rain = 0
KAM1 101750Z 33012G17KT 22/M14 A2983 RMK A01 T02171142  RH  008%=      5-min Rain = 0
KAM1 101751Z 33013KT 22/M14 A2983 RMK A01 T02161144  RH  008%=      5-min Rain = 0
KAM1 101752Z 33013KT 22/M14 A2983 RMK A01 T02161144  RH  008%=      5-min Rain = 0
KAM1 101753Z 33010KT 22/M14 A2983 RMK A01 T02161144  RH  008%=      5-min Rain = 0
KAM1 101754Z 33012KT 22/M14 A2984 RMK A01 T02181143  RH  008%=      5-min Rain = 0
KAM1 101755Z 31011KT 22/M14 A2984 RMK A01 T02191144  RH  008%=      5-min Rain = 0
KAM1 101756Z 32013KT 22/M14 A2984 RMK A01 T02201142  RH  008%=      5-min Rain = 0
KAM1 101757Z 33013KT 22/M14 A2984 RMK A01 T02201144  RH  008%=      5-min Rain = 0
KAM1 101758Z 31012KT 22/M14 A2984 RMK A01 T02191144  RH  008%=      5-min Rain = 0
KAM1 101759Z 31012KT 22/M15 A2983 RMK A01 T02191148  RH  007%=      5-min Rain = 0
KAM1 101800Z 34011G16KT 22/M15 A2984 RMK A01 T02191145  RH  008%=      5-min Rain = 0
KAM1 101801Z 34013KT 22/M14 A2984 RMK A01 T02211143  RH  008%=      5-min Rain = 0
KAM1 101802Z 34013KT 22/M14 A2984 RMK A01 T02211144  RH  008%=      5-min Rain = 0
KAM1 101803Z 32012KT 22/M15 A2984 RMK A01 T02201146  RH  008%=      5-min Rain = 0
KAM1 101804Z 33015KT 22/M15 A2984 RMK A01 T02171146  RH  008%=      5-min Rain = 0
KAM1 101805Z 33014KT 22/M15 A2984 RMK A01 T02181145  RH  008%=      5-min Rain = 0
KAM1 101806Z 33012G17KT 22/M15 A2984 RMK A01 T02191147  RH  007%=      5-min Rain = 0
KAM1 101807Z 33012KT 22/M15 A2984 RMK A01 T02201147  RH  007%=      5-min Rain = 0
KAM1 101808Z 33012KT 22/M15 A2984 RMK A01 T02211146  RH  007%=      5-min Rain = 0
KAM1 101809Z 32009KT 22/M15 A2984 RMK A01 T02221145  RH  007%=      5-min Rain = 0
KAM1 101810Z 33012KT 22/M15 A2984 RMK A01 T02211145  RH  007%=      5-min Rain = 0
KAM1 101811Z 32013KT 22/M14 A2984 RMK A01 T02211144  RH  008%=      5-min Rain = 0
KAM1 101812Z 32011KT 22/M15 A2984 RMK A01 T02201145  RH  008%=      5-min Rain = 0
KAM1 101813Z 32012KT 22/M15 A2984 RMK A01 T02211145  RH  008%=      5-min Rain = 0
KAM1 101814Z 34010KT 22/M15 A2984 RMK A01 T02211146  RH  007%=      5-min Rain = 0
KAM1 101815Z 33011KT 22/M14 A2984 RMK A01 T02231143  RH  008%=      5-min Rain = 0
KAM1 101816Z 33013KT 23/M14 A2984 RMK A01 T02251143  RH  007%=      5-min Rain = 0
KAM1 101817Z 32012KT 23/M14 A2984 RMK A01 T02251144  RH  007%=      5-min Rain = 0
KAM1 101818Z 33013KT 22/M15 A2984 RMK A01 T02241145  RH  007%=      5-min Rain = 0
KAM1 101819Z 34011KT 22/M15 A2984 RMK A01 T02241148  RH  007%=      5-min Rain = 0
KAM1 101820Z 35012KT 22/M15 A2984 RMK A01 T02221150  RH  007%=      5-min Rain = 0
KAM1 101821Z 34012KT 22/M15 A2984 RMK A01 T02211151  RH  007%=      5-min Rain = 0
KAM1 101822Z 34012KT 22/M15 A2984 RMK A01 T02201149  RH  007%=      5-min Rain = 0
KAM1 101823Z 34014KT 22/M15 A2984 RMK A01 T02221147  RH  007%=      5-min Rain = 0
KAM1 101824Z 34014KT 22/M15 A2984 RMK A01 T02231150  RH  007%=      5-min Rain = 0
KAM1 101825Z 34013KT 22/M15 A2984 RMK A01 T02231152  RH  007%=      5-min Rain = 0
KAM1 101826Z 34013KT 22/M15 A2984 RMK A01 T02241149  RH  007%=      5-min Rain = 0
KAM1 101827Z 34011KT 22/M15 A2984 RMK A01 T02231151  RH  007%=      5-min Rain = 0
KAM1 101828Z 34010KT 22/M15 A2984 RMK A01 T02231148  RH  007%=      5-min Rain = 0
KAM1 101829Z 35011KT 22/M15 A2984 RMK A01 T02241145  RH  007%=      5-min Rain = 0
KAM1 101830Z 34010KT 22/M15 A2984 RMK A01 T02241145  RH  007%=      5-min Rain = 0
KAM1 101831Z 33009KT 22/M14 A2984 RMK A01 T02241141  RH  008%=      5-min Rain = 0
KAM1 101832Z 33013KT 23/M14 A2984 RMK A01 T02271138  RH  008%=      5-min Rain = 0
KAM1 101833Z 33014KT 23/M14 A2984 RMK A01 T02301144  RH  007%=      5-min Rain = 0
KAM1 101834Z 33013KT 23/M15 A2984 RMK A01 T02261150  RH  007%=      5-min Rain = 0
KAM1 101835Z 34013KT 23/M15 A2984 RMK A01 T02251145  RH  007%=      5-min Rain = 0
KAM1 101836Z 34011KT 23/M14 A2984 RMK A01 T02261143  RH  007%=      5-min Rain = 0
KAM1 101837Z 35011KT 23/M14 A2984 RMK A01 T02251142  RH  007%=      5-min Rain = 0
KAM1 101838Z 35012KT 23/M14 A2983 RMK A01 T02271142  RH  007%=      5-min Rain = 0
KAM1 101839Z 36012KT 23/M15 A2983 RMK A01 T02261145  RH  007%=      5-min Rain = 0
KAM1 101840Z 35009KT 22/M14 A2983 RMK A01 T02241142  RH  008%=      5-min Rain = 0
KAM1 101841Z 34008KT 23/M14 A2983 RMK A01 T02251137  RH  008%=      5-min Rain = 0
KAM1 101842Z 35009KT 23/M14 A2983 RMK A01 T02251139  RH  008%=      5-min Rain = 0
KAM1 101843Z 32012KT 23/M13 A2983 RMK A01 T02271134  RH  008%=      5-min Rain = 0
KAM1 101844Z 33010KT 23/M14 A2983 RMK A01 T02291139  RH  008%=      5-min Rain = 0
KAM1 101845Z 33009KT 23/M14 A2983 RMK A01 T02251142  RH  007%=      5-min Rain = 0
KAM1 101846Z 32011KT 23/M14 A2983 RMK A01 T02261137  RH  008%=      5-min Rain = 0
KAM1 101847Z 32011KT 23/M14 A2983 RMK A01 T02261139  RH  008%=      5-min Rain = 0
KAM1 101848Z 33009KT 22/M14 A2983 RMK A01 T02241140  RH  008%=      5-min Rain = 0
KAM1 101849Z 35007KT 23/M14 A2983 RMK A01 T02251136  RH  008%=      5-min Rain = 0
KAM1 101850Z 35007KT 23/M13 A2983 RMK A01 T02271133  RH  008%=      5-min Rain = 0
KAM1 101851Z 33009G14KT 23/M13 A2983 RMK A01 T02271133  RH  008%=      5-min Rain = 0
KAM1 101852Z 33015KT 23/M13 A2983 RMK A01 T02281133  RH  008%=      5-min Rain = 0
KAM1 101853Z 33012KT 23/M14 A2983 RMK A01 T02291135  RH  008%=      5-min Rain = 0
KAM1 101854Z 33010KT 23/M14 A2983 RMK A01 T02281138  RH  008%=      5-min Rain = 0
KAM1 101855Z 32007KT 22/M14 A2983 RMK A01 T02241139  RH  008%=      5-min Rain = 0
KAM1 101856Z 29005KT 22/M14 A2983 RMK A01 T02231135  RH  008%=      5-min Rain = 0
KAM1 101857Z 33004KT 23/M13 A2983 RMK A01 T02261130  RH  008%=      5-min Rain = 0
KAM1 101858Z 35007KT 23/M13 A2983 RMK A01 T02301129  RH  008%=      5-min Rain = 0
KAM1 101859Z 35008KT 23/M13 A2983 RMK A01 T02311131  RH  008%=      5-min Rain = 0
KAM1 101900Z 35009KT 23/M13 A2982 RMK A01 T02281133  RH  008%=      5-min Rain = 0
KAM1 101901Z 35009KT 23/M13 A2982 RMK A01 T02261132  RH  008%=      5-min Rain = 0
KAM1 101902Z 35010KT 23/M13 A2982 RMK A01 T02281128  RH  008%=      5-min Rain = 0
KAM1 101903Z 33011KT 23/M13 A2982 RMK A01 T02321128  RH  008%=      5-min Rain = 0
KAM1 101904Z 33006KT 23/M14 A2982 RMK A01 T02321136  RH  008%=      5-min Rain = 0
KAM1 101905Z 32004KT 23/M14 A2982 RMK A01 T02301135  RH  008%=      5-min Rain = 0
KAM1 101906Z 33006KT 23/M14 A2982 RMK A01 T02281135  RH  008%=      5-min Rain = 0
KAM1 101907Z 31006KT 23/M13 A2982 RMK A01 T02281133  RH  008%=      5-min Rain = 0
KAM1 101908Z 29009KT 23/M13 A2982 RMK A01 T02291133  RH  008%=      5-min Rain = 0
KAM1 101909Z 30010KT 23/M14 A2982 RMK A01 T02301138  RH  008%=      5-min Rain = 0
KAM1 101910Z 30010KT 23/M14 A2982 RMK A01 T02321140  RH  007%=      5-min Rain = 0
KAM1 101911Z 32008KT 23/M14 A2982 RMK A01 T02321138  RH  007%=      5-min Rain = 0
KAM1 101912Z 34007KT 23/M14 A2982 RMK A01 T02331140  RH  007%=      5-min Rain = 0
KAM1 101913Z 35008KT 23/M14 A2982 RMK A01 T02331138  RH  007%=      5-min Rain = 0
KAM1 101914Z 35011KT 23/M14 A2982 RMK A01 T02311135  RH  008%=      5-min Rain = 0
KAM1 101915Z 35010KT 23/M14 A2982 RMK A01 T02291144  RH  007%=      5-min Rain = 0
KAM1 101916Z 35008KT 23/M15 A2982 RMK A01 T02271148  RH  007%=      5-min Rain = 0
KAM1 101917Z 36005KT 23/M15 A2982 RMK A01 T02261146  RH  007%=      5-min Rain = 0
KAM1 101918Z 33005KT 23/M15 A2982 RMK A01 T02261149  RH  007%=      5-min Rain = 0
KAM1 101919Z 30009KT 23/M15 A2982 RMK A01 T02261145  RH  007%=      5-min Rain = 0
KAM1 101920Z 31010KT 23/M14 A2982 RMK A01 T02281141  RH  007%=      5-min Rain = 0
KAM1 101921Z 31010KT 23/M14 A2981 RMK A01 T02301140  RH  007%=      5-min Rain = 0
KAM1 101922Z 30007KT 23/M14 A2981 RMK A01 T02291142  RH  007%=      5-min Rain = 0
KAM1 101923Z 29008KT 23/M14 A2981 RMK A01 T02261141  RH  007%=      5-min Rain = 0
KAM1 101924Z 30010KT 23/M14 A2981 RMK A01 T02281138  RH  008%=      5-min Rain = 0
KAM1 101925Z 31009KT 23/M13 A2981 RMK A01 T02321134  RH  008%=      5-min Rain = 0
KAM1 101926Z 33012KT 23/M13 A2981 RMK A01 T02341134  RH  008%=      5-min Rain = 0
KAM1 101927Z 31012KT 23/M13 A2981 RMK A01 T02341134  RH  008%=      5-min Rain = 0
KAM1 101928Z 32012KT 23/M13 A2981 RMK A01 T02341133  RH  008%=      5-min Rain = 0
KAM1 101929Z 34010KT 23/M13 A2981 RMK A01 T02341133  RH  008%=      5-min Rain = 0
KAM1 101930Z 32009KT 23/M13 A2981 RMK A01 T02341133  RH  008%=      5-min Rain = 0
KAM1 101931Z 30008KT 23/M13 A2981 RMK A01 T02331129  RH  008%=      5-min Rain = 0
KAM1 101932Z 30006KT 23/M13 A2981 RMK A01 T02331131  RH  008%=      5-min Rain = 0
KAM1 101933Z 30007KT 23/M13 A2981 RMK A01 T02321133  RH  008%=      5-min Rain = 0
KAM1 101934Z 32010KT 23/M13 A2981 RMK A01 T02321131  RH  008%=      5-min Rain = 0
KAM1 101935Z 31013KT 24/M13 A2981 RMK A01 T02351130  RH  008%=      5-min Rain = 0
KAM1 101936Z 33012KT 24/M13 A2981 RMK A01 T02351132  RH  008%=      5-min Rain = 0
KAM1 101937Z 33012KT 24/M13 A2981 RMK A01 T02351130  RH  008%=      5-min Rain = 0
KAM1 101938Z 32007KT 23/M13 A2981 RMK A01 T02331134  RH  008%=      5-min Rain = 0
KAM1 101939Z 31009KT 23/M13 A298 RMK A01 T02301132  RH  008%=      5-min Rain = 0
KAM1 101940Z 31008KT 23/M13 A298 RMK A01 T02321131  RH  008%=      5-min Rain = 0
KAM1 101941Z 30008KT 23/M13 A298 RMK A01 T02321133  RH  008%=      5-min Rain = 0
KAM1 101942Z 30007KT 23/M13 A298 RMK A01 T02311133  RH  008%=      5-min Rain = 0
KAM1 101943Z 31009KT 23/M13 A298 RMK A01 T02311131  RH  008%=      5-min Rain = 0
KAM1 101944Z 32015KT 23/M13 A298 RMK A01 T02341128  RH  008%=      5-min Rain = 0
KAM1 101945Z 33012G17KT 24/M13 A298 RMK A01 T02371131  RH  008%=      5-min Rain = 0
KAM1 101946Z 32008KT 24/M14 A298 RMK A01 T02351135  RH  007%=      5-min Rain = 0
KAM1 101947Z 32010KT 24/M13 A298 RMK A01 T02351129  RH  008%=      5-min Rain = 0
KAM1 101948Z 31007KT 24/M12 A298 RMK A01 T02401124  RH  008%=      5-min Rain = 0
KAM1 101949Z 29008KT 24/M13 A2979 RMK A01 T02441126  RH  008%=      5-min Rain = 0
KAM1 101950Z 30010KT 25/M13 A2979 RMK A01 T02451129  RH  007%=      5-min Rain = 0
KAM1 101951Z 35006KT 24/M13 A2979 RMK A01 T02411132  RH  007%=      5-min Rain = 0
KAM1 101952Z 35008KT 24/M13 A2979 RMK A01 T02381133  RH  007%=      5-min Rain = 0
KAM1 101953Z 34007KT 24/M13 A2979 RMK A01 T02381132  RH  008%=      5-min Rain = 0
KAM1 101954Z 35005KT 24/M13 A2979 RMK A01 T02361134  RH  007%=      5-min Rain = 0
KAM1 101955Z 35003KT 24/M13 A2979 RMK A01 T02351132  RH  008%=      5-min Rain = 0
KAM1 101956Z 28002KT 24/M12 A2979 RMK A01 T02361124  RH  008%=      5-min Rain = 0
KAM1 101957Z 30005KT 24/M13 A2979 RMK A01 T02381127  RH  008%=      5-min Rain = 0
KAM1 101958Z 31006G13KT 24/M13 A2979 RMK A01 T02371129  RH  008%=      5-min Rain = 0
KAM1 101959Z 35013KT 24/M12 A2979 RMK A01 T02401123  RH  008%=      5-min Rain = 0
KAM1 102000Z 34013KT 25/M12 A2979 RMK A01 T02451123  RH  008%=      5-min Rain = 0
KAM1 102001Z 33012KT 25/M13 A2979 RMK A01 T02451127  RH  007%=      5-min Rain = 0
KAM1 102002Z 33008KT 24/M13 A2979 RMK A01 T02401132  RH  007%=      5-min Rain = 0
KAM1 102003Z 33008G13KT 24/M13 A2979 RMK A01 T02381130  RH  008%=      5-min Rain = 0
KAM1 102004Z 33013KT 24/M13 A2979 RMK A01 T02381128  RH  008%=      5-min Rain = 0
KAM1 102005Z 32011KT 24/M13 A2979 RMK A01 T02381131  RH  008%=      5-min Rain = 0
KAM1 102006Z 31006KT 24/M13 A2979 RMK A01 T02361132  RH  008%=      5-min Rain = 0
KAM1 102007Z 34007KT 24/M13 A2979 RMK A01 T02361131  RH  008%=      5-min Rain = 0
KAM1 102008Z 35013KT 24/M13 A2979 RMK A01 T02361127  RH  008%=      5-min Rain = 0
KAM1 102009Z 36012KT 24/M12 A2979 RMK A01 T02391123  RH  008%=      5-min Rain = 0
KAM1 102010Z 36011KT 24/M13 A2979 RMK A01 T02411125  RH  008%=      5-min Rain = 0
KAM1 102011Z 36010KT 24/M13 A2979 RMK A01 T02381130  RH  008%=      5-min Rain = 0
KAM1 102012Z 35008KT 24/M13 A2979 RMK A01 T02361131  RH  008%=      5-min Rain = 0
KAM1 102013Z 36006KT 24/M13 A2979 RMK A01 T02351132  RH  008%=      5-min Rain = 0
KAM1 102014Z 35004KT 23/M13 A2979 RMK A01 T02341132  RH  008%=      5-min Rain = 0
KAM1 102015Z 35009G15KT 24/M13 A2979 RMK A01 T02351125  RH  008%=      5-min Rain = 0
KAM1 102016Z 33014KT 24/M13 A2979 RMK A01 T02391128  RH  008%=      5-min Rain = 0
KAM1 102017Z 31013KT 24/M13 A2979 RMK A01 T02391131  RH  008%=      5-min Rain = 0
KAM1 102018Z 31010KT 24/M13 A2979 RMK A01 T02411126  RH  008%=      5-min Rain = 0
KAM1 102019Z 30010KT 24/M13 A2979 RMK A01 T02431127  RH  008%=      5-min Rain = 0
KAM1 102020Z 30010KT 24/M13 A2979 RMK A01 T02441128  RH  007%=      5-min Rain = 0
KAM1 102021Z 29010KT 24/M13 A2979 RMK A01 T02431130  RH  007%=      5-min Rain = 0
KAM1 102022Z 30009KT 24/M13 A2979 RMK A01 T02431128  RH  008%=      5-min Rain = 0
KAM1 102023Z 29009KT 24/M13 A2979 RMK A01 T02441125  RH  008%=      5-min Rain = 0
KAM1 102024Z 31011KT 25/M13 A2979 RMK A01 T02451129  RH  007%=      5-min Rain = 0
KAM1 102025Z 32010KT 25/M13 A2979 RMK A01 T02451130  RH  007%=      5-min Rain = 0
KAM1 102026Z 32013KT 25/M13 A2979 RMK A01 T02451128  RH  007%=      5-min Rain = 0
KAM1 102027Z 33010KT 24/M13 A2979 RMK A01 T02441129  RH  007%=      5-min Rain = 0
KAM1 102028Z 33008KT 24/M13 A2979 RMK A01 T02421129  RH  008%=      5-min Rain = 0
KAM1 102029Z 32010KT 24/M13 A2979 RMK A01 T02411128  RH  008%=      5-min Rain = 0
KAM1 102030Z 33008KT 24/M13 A2979 RMK A01 T02411130  RH  008%=      5-min Rain = 0
KAM1 102031Z 33008KT 24/M13 A2979 RMK A01 T02411132  RH  007%=      5-min Rain = 0
KAM1 102032Z 32011KT 24/M13 A2979 RMK A01 T02411130  RH  008%=      5-min Rain = 0
KAM1 102033Z 33012KT 24/M13 A2979 RMK A01 T02401133  RH  007%=      5-min Rain = 0
KAM1 102034Z 00010KT 24/M13 A2979 RMK A01 T02381131  RH  008%=      5-min Rain = 0
KAM1 102035Z 35008G16KT 24/M13 A2979 RMK A01 T02391129  RH  008%=      5-min Rain = 0
KAM1 102036Z 33012KT 24/M13 A2979 RMK A01 T02411126  RH  008%=      5-min Rain = 0
KAM1 102037Z 33009G14KT 24/M13 A2979 RMK A01 T02421128  RH  008%=      5-min Rain = 0
KAM1 102038Z 31009KT 24/M13 A2979 RMK A01 T02411128  RH  008%=      5-min Rain = 0
KAM1 102039Z 31008KT 24/M13 A2979 RMK A01 T02411130  RH  008%=      5-min Rain = 0
KAM1 102040Z 34009G16KT 24/M13 A2979 RMK A01 T02381132  RH  008%=      5-min Rain = 0
KAM1 102041Z 33013KT 24/M13 A2979 RMK A01 T02401127  RH  008%=      5-min Rain = 0
KAM1 102042Z 33012KT 24/M13 A2979 RMK A01 T02431128  RH  008%=      5-min Rain = 0
KAM1 102043Z 33014KT 24/M13 A2979 RMK A01 T02421130  RH  007%=      5-min Rain = 0
KAM1 102044Z 31015KT 24/M13 A2979 RMK A01 T02421128  RH  008%=      5-min Rain = 0
KAM1 102045Z 32012KT 24/M13 A2979 RMK A01 T02421129  RH  008%=      5-min Rain = 0
KAM1 102046Z 33012KT 24/M13 A2979 RMK A01 T02411129  RH  008%=      5-min Rain = 0
KAM1 102047Z 34009KT 24/M13 A2979 RMK A01 T02421130  RH  007%=      5-min Rain = 0
KAM1 102048Z 35010KT 24/M13 A2979 RMK A01 T02411133  RH  007%=      5-min Rain = 0
KAM1 102049Z 34008KT 24/M13 A2979 RMK A01 T02401132  RH  007%=      5-min Rain = 0
KAM1 102050Z 35011KT 24/M13 A2979 RMK A01 T02401131  RH  008%=      5-min Rain = 0
KAM1 102051Z 36011KT 24/M13 A2979 RMK A01 T02421131  RH  007%=      5-min Rain = 0
KAM1 102052Z 34012KT 24/M13 A2979 RMK A01 T02421131  RH  007%=      5-min Rain = 0
KAM1 102053Z 34012KT 24/M13 A2979 RMK A01 T02441130  RH  007%=      5-min Rain = 0
KAM1 102054Z 34010KT 24/M14 A2979 RMK A01 T02411136  RH  007%=      5-min Rain = 0
KAM1 102055Z 33011KT 24/M14 A2979 RMK A01 T02361138  RH  007%=      5-min Rain = 0
KAM1 102056Z 33009KT 23/M14 A2979 RMK A01 T02341135  RH  008%=      5-min Rain = 0
KAM1 102057Z 32010KT 23/M13 A2979 RMK A01 T02331134  RH  008%=      5-min Rain = 0
KAM1 102058Z 32005KT 23/M14 A2979 RMK A01 T02331135  RH  008%=      5-min Rain = 0
KAM1 102059Z 33006KT 23/M13 A2979 RMK A01 T02341134  RH  008%=      5-min Rain = 0
KAM1 102100Z 35005KT 24/M13 A2979 RMK A01 T02351134  RH  008%=      5-min Rain = 0
KAM1 102101Z 35007KT 24/M13 A2979 RMK A01 T02361134  RH  008%=      5-min Rain = 0
KAM1 102102Z 34011KT 24/M13 A2979 RMK A01 T02371133  RH  008%=      5-min Rain = 0
KAM1 102103Z 32010KT 24/M13 A2979 RMK A01 T02381134  RH  007%=      5-min Rain = 0
KAM1 102104Z 31008KT 24/M14 A2979 RMK A01 T02391135  RH  007%=      5-min Rain = 0
KAM1 102105Z 29009KT 24/M14 A2979 RMK A01 T02371136  RH  007%=      5-min Rain = 0
KAM1 102106Z 30008KT 24/M13 A2979 RMK A01 T02391133  RH  007%=      5-min Rain = 0
KAM1 102107Z 29009KT 24/M13 A2979 RMK A01 T02401134  RH  007%=      5-min Rain = 0
KAM1 102108Z 28006KT 24/M14 A2979 RMK A01 T02391136  RH  007%=      5-min Rain = 0
KAM1 102109Z 28008KT 24/M13 A2979 RMK A01 T02391131  RH  008%=      5-min Rain = 0
KAM1 102110Z 28008KT 24/M13 A2979 RMK A01 T02431133  RH  007%=      5-min Rain = 0
KAM1 102111Z 30006KT 24/M14 A2979 RMK A01 T02421135  RH  007%=      5-min Rain = 0
KAM1 102112Z 32005KT 24/M14 A2979 RMK A01 T02411135  RH  007%=      5-min Rain = 0
KAM1 102113Z 27005KT 24/M14 A2979 RMK A01 T02411135  RH  007%=      5-min Rain = 0
KAM1 102114Z 33006KT 24/M14 A2979 RMK A01 T02421135  RH  007%=      5-min Rain = 0
KAM1 102115Z 02008KT 24/M13 A2979 RMK A01 T02421134  RH  007%=      5-min Rain = 0
KAM1 102116Z 03011KT 24/M13 A2979 RMK A01 T02431131  RH  007%=      5-min Rain = 0
KAM1 102117Z 01010KT 24/M13 A2979 RMK A01 T02441132  RH  007%=      5-min Rain = 0
KAM1 102118Z 02007KT 24/M13 A2979 RMK A01 T02431134  RH  007%=      5-min Rain = 0
KAM1 102119Z 00009KT 24/M13 A2979 RMK A01 T02441132  RH  007%=      5-min Rain = 0
KAM1 102120Z 35006KT 24/M14 A2979 RMK A01 T02441135  RH  007%=      5-min Rain = 0
KAM1 102121Z 36009KT 24/M13 A2979 RMK A01 T02431133  RH  007%=      5-min Rain = 0
KAM1 102122Z 34010KT 25/M13 A2978 RMK A01 T02461129  RH  007%=      5-min Rain = 0
KAM1 102123Z 34008KT 25/M13 A2978 RMK A01 T02491132  RH  007%=      5-min Rain = 0
KAM1 102124Z 34010KT 25/M13 A2978 RMK A01 T02501131  RH  007%=      5-min Rain = 0
KAM1 102125Z 35012KT 25/M13 A2978 RMK A01 T02491134  RH  007%=      5-min Rain = 0
KAM1 102126Z 34013KT 25/M14 A2978 RMK A01 T02481135  RH  007%=      5-min Rain = 0
KAM1 102127Z 34010KT 25/M14 A2978 RMK A01 T02461138  RH  007%=      5-min Rain = 0
KAM1 102128Z 35007KT 24/M14 A2978 RMK A01 T02441138  RH  007%=      5-min Rain = 0
KAM1 102129Z 01008KT 24/M14 A2978 RMK A01 T02431137  RH  007%=      5-min Rain = 0
KAM1 102130Z 35010KT 24/M14 A2978 RMK A01 T02431137  RH  007%=      5-min Rain = 0
KAM1 102131Z 36009KT 25/M13 A2978 RMK A01 T02451134  RH  007%=      5-min Rain = 0
KAM1 102132Z 00007KT 24/M14 A2978 RMK A01 T02441137  RH  007%=      5-min Rain = 0
KAM1 102133Z 35007KT 24/M14 A2978 RMK A01 T02411139  RH  007%=      5-min Rain = 0
KAM1 102134Z 34011KT 24/M14 A2978 RMK A01 T02391139  RH  007%=      5-min Rain = 0
KAM1 102135Z 34008KT 24/M14 A2979 RMK A01 T02381139  RH  007%=      5-min Rain = 0
KAM1 102136Z 35007KT 24/M14 A2978 RMK A01 T02361139  RH  007%=      5-min Rain = 0
KAM1 102137Z 36005KT 24/M14 A2978 RMK A01 T02361137  RH  007%=      5-min Rain = 0
KAM1 102138Z 34004KT 24/M14 A2979 RMK A01 T02361135  RH  007%=      5-min Rain = 0
KAM1 102139Z 35004KT 24/M14 A2979 RMK A01 T02381135  RH  007%=      5-min Rain = 0
KAM1 102140Z 34004KT 24/M14 A2979 RMK A01 T02381136  RH  007%=      5-min Rain = 0
KAM1 102141Z 32005KT 24/M14 A2979 RMK A01 T02381135  RH  007%=      5-min Rain = 0
KAM1 102142Z 30009KT 24/M14 A2978 RMK A01 T02391135  RH  007%=      5-min Rain = 0
KAM1 102143Z 32009KT 24/M14 A2978 RMK A01 T02401135  RH  007%=      5-min Rain = 0
KAM1 102144Z 33008KT 24/M14 A2979 RMK A01 T02411136  RH  007%=      5-min Rain = 0
KAM1 102145Z 33005KT 24/M14 A2979 RMK A01 T02411135  RH  007%=      5-min Rain = 0
KAM1 102146Z 32005KT 24/M14 A2978 RMK A01 T02421136  RH  007%=      5-min Rain = 0
KAM1 102147Z 35009KT 24/M13 A2978 RMK A01 T02431133  RH  007%=      5-min Rain = 0
KAM1 102148Z 35012KT 24/M13 A2979 RMK A01 T02441133  RH  007%=      5-min Rain = 0
KAM1 102149Z 36009KT 24/M14 A2979 RMK A01 T02441135  RH  007%=      5-min Rain = 0
KAM1 102150Z 00008KT 24/M14 A2979 RMK A01 T02421137  RH  007%=      5-min Rain = 0
KAM1 102151Z 01008KT 24/M14 A2979 RMK A01 T02401136  RH  007%=      5-min Rain = 0
KAM1 102152Z 02010KT 24/M13 A2979 RMK A01 T02401134  RH  007%=      5-min Rain = 0
KAM1 102153Z 03005KT 24/M14 A2979 RMK A01 T02381138  RH  007%=      5-min Rain = 0
KAM1 102154Z 10002KT 24/M14 A2979 RMK A01 T02361138  RH  007%=      5-min Rain = 0
KAM1 102155Z 09002KT 24/M14 A2979 RMK A01 T02351137  RH  007%=      5-min Rain = 0
KAM1 102156Z 02003KT 24/M14 A2979 RMK A01 T02351137  RH  007%=      5-min Rain = 0
KAM1 102157Z 03007G14KT 24/M14 A2979 RMK A01 T02351136  RH  007%=      5-min Rain = 0
KAM1 102158Z 02006G11KT 24/M14 A2979 RMK A01 T02351136  RH  007%=      5-min Rain = 0
KAM1 102159Z 03003KT 24/M14 A2979 RMK A01 T02351135  RH  007%=      5-min Rain = 0
KAM1 102200Z 08001KT 24/M13 A2979 RMK A01 T02361132  RH  008%=      5-min Rain = 0
KAM1 102201Z 31000KT 24/M13 A2979 RMK A01 T02371134  RH  007%=      5-min Rain = 0
KAM1 102202Z 28001KT 24/M14 A2979 RMK A01 T02381135  RH  007%=      5-min Rain = 0
KAM1 102203Z 20000KT 24/M14 A2979 RMK A01 T02381137  RH  007%=      5-min Rain = 0
KAM1 102204Z 20001KT 24/M14 A2979 RMK A01 T02401137  RH  007%=      5-min Rain = 0
KAM1 102205Z 01002KT 24/M13 A2979 RMK A01 T02421133  RH  007%=      5-min Rain = 0
KAM1 102206Z 03006KT 24/M13 A2979 RMK A01 T02431131  RH  007%=      5-min Rain = 0
KAM1 102207Z 04007KT 24/M13 A2979 RMK A01 T02431134  RH  007%=      5-min Rain = 0
KAM1 102208Z 02006KT 24/M13 A2979 RMK A01 T02401132  RH  007%=      5-min Rain = 0
KAM1 102209Z 00008G15KT 24/M13 A2979 RMK A01 T02411130  RH  008%=      5-min Rain = 0
KAM1 102210Z 01011KT 24/M13 A2979 RMK A01 T02411131  RH  007%=      5-min Rain = 0
KAM1 102211Z 02011KT 24/M13 A2979 RMK A01 T02401132  RH  007%=      5-min Rain = 0
KAM1 102212Z 03008KT 24/M13 A2979 RMK A01 T02391132  RH  007%=      5-min Rain = 0
KAM1 102213Z 04008KT 24/M13 A2979 RMK A01 T02381134  RH  007%=      5-min Rain = 0
KAM1 102214Z 03009KT 24/M13 A2979 RMK A01 T02371133  RH  007%=      5-min Rain = 0
KAM1 102215Z 03009KT 24/M13 A2979 RMK A01 T02381131  RH  008%=      5-min Rain = 0
KAM1 102216Z 03009KT 24/M13 A2979 RMK A01 T02391132  RH  007%=      5-min Rain = 0
KAM1 102217Z 01009KT 24/M13 A2979 RMK A01 T02381133  RH  007%=      5-min Rain = 0
KAM1 102218Z 35009KT 24/M13 A2979 RMK A01 T02381131  RH  008%=      5-min Rain = 0
KAM1 102219Z 35007KT 24/M13 A2979 RMK A01 T02391130  RH  008%=      5-min Rain = 0
KAM1 102220Z 35007KT 24/M13 A2979 RMK A01 T02381132  RH  008%=      5-min Rain = 0
KAM1 102221Z 00007KT 24/M13 A2979 RMK A01 T02371133  RH  008%=      5-min Rain = 0
KAM1 102222Z 36004KT 24/M13 A2979 RMK A01 T02381132  RH  008%=      5-min Rain = 0
KAM1 102223Z 35004KT 24/M13 A2979 RMK A01 T02381133  RH  007%=      5-min Rain = 0
KAM1 102224Z 35004KT 24/M13 A2979 RMK A01 T02381132  RH  008%=      5-min Rain = 0
KAM1 102225Z 01008KT 24/M13 A2979 RMK A01 T02371129  RH  008%=      5-min Rain = 0
KAM1 102226Z 03007KT 24/M13 A2979 RMK A01 T02381128  RH  008%=      5-min Rain = 0
KAM1 102227Z 03007KT 24/M13 A2979 RMK A01 T02411127  RH  008%=      5-min Rain = 0
KAM1 102228Z 02009G14KT 24/M13 A2979 RMK A01 T02421126  RH  008%=      5-min Rain = 0
KAM1 102229Z 02011KT 24/M13 A2979 RMK A01 T02431126  RH  008%=      5-min Rain = 0
KAM1 102230Z 01010KT 24/M13 A2979 RMK A01 T02411129  RH  008%=      5-min Rain = 0
KAM1 102231Z 02007KT 24/M13 A2979 RMK A01 T02381130  RH  008%=      5-min Rain = 0
KAM1 102232Z 01007KT 24/M13 A2979 RMK A01 T02361131  RH  008%=      5-min Rain = 0
KAM1 102233Z 01010KT 24/M13 A2979 RMK A01 T02361129  RH  008%=      5-min Rain = 0
KAM1 102234Z 35012KT 24/M13 A2979 RMK A01 T02371127  RH  008%=      5-min Rain = 0
KAM1 102235Z 00010KT 24/M13 A2979 RMK A01 T02371128  RH  008%=      5-min Rain = 0
KAM1 102236Z 02010KT 24/M13 A2979 RMK A01 T02371129  RH  008%=      5-min Rain = 0
KAM1 102237Z 03007KT 24/M13 A2979 RMK A01 T02361128  RH  008%=      5-min Rain = 0
KAM1 102238Z 03006KT 24/M13 A2979 RMK A01 T02351128  RH  008%=      5-min Rain = 0
KAM1 102239Z 04004KT 23/M13 A2979 RMK A01 T02341128  RH  008%=      5-min Rain = 0
KAM1 102240Z 06003KT 23/M13 A2979 RMK A01 T02341130  RH  008%=      5-min Rain = 0
KAM1 102241Z 06004KT 23/M13 A2979 RMK A01 T02331130  RH  008%=      5-min Rain = 0
KAM1 102242Z 03006KT 23/M13 A2979 RMK A01 T02331128  RH  008%=      5-min Rain = 0
KAM1 102243Z 03008KT 23/M13 A2979 RMK A01 T02341127  RH  008%=      5-min Rain = 0
KAM1 102244Z 03007KT 24/M13 A2979 RMK A01 T02351128  RH  008%=      5-min Rain = 0
KAM1 102245Z 06008KT 24/M13 A2979 RMK A01 T02361126  RH  008%=      5-min Rain = 0
KAM1 102246Z 05008KT 24/M13 A298 RMK A01 T02371125  RH  008%=      5-min Rain = 0
KAM1 102247Z 04009KT 24/M13 A298 RMK A01 T02371126  RH  008%=      5-min Rain = 0
KAM1 102248Z 04008KT 24/M13 A298 RMK A01 T02371126  RH  008%=      5-min Rain = 0
KAM1 102249Z 03011KT 24/M13 A298 RMK A01 T02361126  RH  008%=      5-min Rain = 0
KAM1 102250Z 02012KT 24/M12 A298 RMK A01 T02361124  RH  008%=      5-min Rain = 0
KAM1 102251Z 03012KT 24/M12 A298 RMK A01 T02361123  RH  008%=      5-min Rain = 0
KAM1 102252Z 02014KT 24/M12 A298 RMK A01 T02351118  RH  009%=      5-min Rain = 0
KAM1 102253Z 02017G22KT 23/M11 A298 RMK A01 T02341113  RH  009%=      5-min Rain = 0
KAM1 102254Z 03014KT 23/M11 A298 RMK A01 T02311113  RH  009%=      5-min Rain = 0
KAM1 102255Z 02014KT 23/M11 A298 RMK A01 T02301111  RH  009%=      5-min Rain = 0
KAM1 102256Z 02017KT 23/M11 A298 RMK A01 T02281110  RH  010%=      5-min Rain = 0
KAM1 102257Z 03017KT 23/M11 A298 RMK A01 T02261111  RH  010%=      5-min Rain = 0
KAM1 102258Z 04015KT 22/M11 A298 RMK A01 T02241110  RH  010%=      5-min Rain = 0
KAM1 102259Z 04016KT 22/M11 A2981 RMK A01 T02241110  RH  010%=      5-min Rain = 0
KAM1 102300Z 04012KT 22/M11 A298 RMK A01 T02241110  RH  010%=      5-min Rain = 0
KAM1 102301Z 03013G18KT 22/M11 A2981 RMK A01 T02241109  RH  010%=      5-min Rain = 0
KAM1 102302Z 03015KT 22/M11 A2981 RMK A01 T02241109  RH  010%=      5-min Rain = 0
KAM1 102303Z 03014KT 22/M11 A2981 RMK A01 T02241110  RH  010%=      5-min Rain = 0
KAM1 102304Z 02016KT 22/M11 A2981 RMK A01 T02231109  RH  010%=      5-min Rain = 0
KAM1 102305Z 02014KT 22/M11 A2981 RMK A01 T02221109  RH  010%=      5-min Rain = 0
KAM1 102306Z 03016KT 22/M11 A2981 RMK A01 T02201109  RH  010%=      5-min Rain = 0
KAM1 102307Z 03015KT 22/M11 A2981 RMK A01 T02191110  RH  010%=      5-min Rain = 0
KAM1 102308Z 04015KT 22/M11 A2981 RMK A01 T02181110  RH  010%=      5-min Rain = 0
KAM1 102309Z 04015KT 22/M11 A2981 RMK A01 T02171109  RH  010%=      5-min Rain = 0
KAM1 102310Z 04015KT 22/M11 A2981 RMK A01 T02161110  RH  010%=      5-min Rain = 0
KAM1 102311Z 04013KT 22/M11 A2981 RMK A01 T02151110  RH  010%=      5-min Rain = 0
KAM1 102312Z 03015KT 21/M11 A2981 RMK A01 T02141109  RH  010%=      5-min Rain = 0
KAM1 102313Z 03013KT 21/M11 A2981 RMK A01 T02141109  RH  010%=      5-min Rain = 0
KAM1 102314Z 03014KT 21/M11 A2981 RMK A01 T02131109  RH  011%=      5-min Rain = 0
KAM1 102315Z 03013KT 21/M11 A2981 RMK A01 T02121110  RH  011%=      5-min Rain = 0
KAM1 102316Z 03014KT 21/M11 A2981 RMK A01 T02111110  RH  011%=      5-min Rain = 0
KAM1 102317Z 02014KT 21/M11 A2981 RMK A01 T02111110  RH  011%=      5-min Rain = 0
KAM1 102318Z 02013KT 21/M11 A2981 RMK A01 T02101111  RH  011%=      5-min Rain = 0
KAM1 102319Z 02012KT 21/M11 A2981 RMK A01 T02101110  RH  011%=      5-min Rain = 0
KAM1 102320Z 02012KT 21/M11 A2981 RMK A01 T02101110  RH  011%=      5-min Rain = 0
KAM1 102321Z 02013KT 21/M11 A2981 RMK A01 T02101110  RH  011%=      5-min Rain = 0
KAM1 102322Z 03012KT 21/M11 A2981 RMK A01 T02101110  RH  011%=      5-min Rain = 0
KAM1 102323Z 02014KT 21/M11 A2981 RMK A01 T02101109  RH  011%=      5-min Rain = 0
KAM1 102324Z 03014KT 21/M11 A2982 RMK A01 T02101109  RH  011%=      5-min Rain = 0
KAM1 102325Z 02013KT 21/M11 A2982 RMK A01 T02101109  RH  011%=      5-min Rain = 0
KAM1 102326Z 03012KT 21/M11 A2982 RMK A01 T02101109  RH  011%=      5-min Rain = 0
KAM1 102327Z 03011KT 21/M11 A2982 RMK A01 T02101108  RH  011%=      5-min Rain = 0
KAM1 102328Z 03011KT 21/M11 A2982 RMK A01 T02101108  RH  011%=      5-min Rain = 0
KAM1 102329Z 03012KT 21/M11 A2982 RMK A01 T02101108  RH  011%=      5-min Rain = 0
KAM1 102330Z 02013KT 21/M11 A2982 RMK A01 T02101108  RH  011%=      5-min Rain = 0
KAM1 102331Z 02014KT 21/M11 A2982 RMK A01 T02101108  RH  011%=      5-min Rain = 0
KAM1 102332Z 03011KT 21/M11 A2982 RMK A01 T02101109  RH  011%=      5-min Rain = 0
KAM1 102333Z 02013KT 21/M11 A2982 RMK A01 T02091109  RH  011%=      5-min Rain = 0
KAM1 102334Z 03013KT 21/M11 A2982 RMK A01 T02091109  RH  011%=      5-min Rain = 0
KAM1 102335Z 03013KT 21/M11 A2982 RMK A01 T02081109  RH  011%=      5-min Rain = 0
KAM1 102336Z 03013KT 21/M11 A2982 RMK A01 T02081108  RH  011%=      5-min Rain = 0
KAM1 102337Z 02013KT 21/M11 A2982 RMK A01 T02081109  RH  011%=      5-min Rain = 0
KAM1 102338Z 03012KT 21/M11 A2982 RMK A01 T02081109  RH  011%=      5-min Rain = 0
KAM1 102339Z 03014KT 21/M11 A2982 RMK A01 T02081110  RH  011%=      5-min Rain = 0
KAM1 102340Z 03011KT 21/M11 A2982 RMK A01 T02071110  RH  011%=      5-min Rain = 0
KAM1 102341Z 03011KT 21/M11 A2982 RMK A01 T02071109  RH  011%=      5-min Rain = 0
KAM1 102342Z 03012KT 21/M11 A2982 RMK A01 T02071110  RH  011%=      5-min Rain = 0
KAM1 102343Z 03012KT 21/M11 A2982 RMK A01 T02061110  RH  011%=      5-min Rain = 0
KAM1 102344Z 03013KT 21/M11 A2982 RMK A01 T02061109  RH  011%=      5-min Rain = 0
KAM1 102345Z 03014KT 21/M11 A2982 RMK A01 T02051108  RH  011%=      5-min Rain = 0
KAM1 102346Z 04010KT 21/M11 A2982 RMK A01 T02051107  RH  011%=      5-min Rain = 0
KAM1 102347Z 04010KT 20/M11 A2982 RMK A01 T02041106  RH  011%=      5-min Rain = 0
KAM1 102348Z 04011KT 20/M11 A2982 RMK A01 T02031106  RH  011%=      5-min Rain = 0
KAM1 102349Z 03013KT 20/M11 A2982 RMK A01 T02021106  RH  012%=      5-min Rain = 0
KAM1 102350Z 04010KT 20/M11 A2982 RMK A01 T02021106  RH  012%=      5-min Rain = 0
KAM1 102351Z 04011KT 20/M11 A2983 RMK A01 T02021106  RH  012%=      5-min Rain = 0
KAM1 102352Z 03010KT 20/M11 A2983 RMK A01 T02011107  RH  012%=      5-min Rain = 0
KAM1 102353Z 04011KT 20/M11 A2983 RMK A01 T02011107  RH  012%=      5-min Rain = 0
KAM1 102354Z 03011KT 20/M11 A2982 RMK A01 T02001107  RH  012%=      5-min Rain = 0
KAM1 102355Z 03010KT 20/M11 A2982 RMK A01 T02001107  RH  012%=      5-min Rain = 0
KAM1 102356Z 03011KT 20/M11 A2983 RMK A01 T01991107  RH  012%=      5-min Rain = 0
KAM1 102357Z 03010KT 20/M11 A2982 RMK A01 T01991107  RH  012%=      5-min Rain = 0
KAM1 102358Z 04010KT 20/M11 A2982 RMK A01 T01981108  RH  012%=      5-min Rain = 0
KAM1 102359Z 04009KT 20/M11 A2982 RMK A01 T01971107  RH  012%=      5-min Rain = 0
KAM1 110000Z 04009KT 20/M11 A2982 RMK A01 T01961107  RH  012%=      5-min Rain = 0
KAM1 110001Z 03009KT 20/M11 A2982 RMK A01 T01951107  RH  012%=      5-min Rain = 0
KAM1 110002Z 04008KT 19/M11 A2982 RMK A01 T01941107  RH  012%=      5-min Rain = 0
KAM1 110003Z 04009KT 19/M11 A2982 RMK A01 T01931107  RH  012%=      5-min Rain = 0
KAM1 110004Z 04009KT 19/M11 A2982 RMK A01 T01931107  RH  012%=      5-min Rain = 0
KAM1 110005Z 04009KT 19/M11 A2983 RMK A01 T01921108  RH  012%=      5-min Rain = 0
KAM1 110006Z 04009KT 19/M11 A2983 RMK A01 T01911108  RH  012%=      5-min Rain = 0
KAM1 110007Z 04008KT 19/M11 A2983 RMK A01 T01901107  RH  012%=      5-min Rain = 0
KAM1 110008Z 04008KT 19/M11 A2983 RMK A01 T01901106  RH  012%=      5-min Rain = 0
KAM1 110009Z 03008KT 19/M11 A2983 RMK A01 T01891106  RH  012%=      5-min Rain = 0
KAM1 110010Z 04008KT 19/M11 A2983 RMK A01 T01871107  RH  013%=      5-min Rain = 0
KAM1 110011Z 04008KT 19/M11 A2983 RMK A01 T01861108  RH  013%=      5-min Rain = 0
KAM1 110012Z 04008KT 19/M11 A2983 RMK A01 T01851108  RH  013%=      5-min Rain = 0
KAM1 110013Z 04008KT 19/M11 A2983 RMK A01 T01851108  RH  013%=      5-min Rain = 0
KAM1 110014Z 04008KT 18/M11 A2982 RMK A01 T01831108  RH  013%=      5-min Rain = 0
KAM1 110015Z 04008KT 18/M11 A2982 RMK A01 T01821109  RH  013%=      5-min Rain = 0
KAM1 110016Z 04009KT 18/M11 A2983 RMK A01 T01821108  RH  013%=      5-min Rain = 0
KAM1 110017Z 04008KT 18/M11 A2983 RMK A01 T01811108  RH  013%=      5-min Rain = 0
KAM1 110018Z 04008KT 18/M11 A2983 RMK A01 T01801109  RH  013%=      5-min Rain = 0
KAM1 110019Z 04008KT 18/M11 A2983 RMK A01 T01801109  RH  013%=      5-min Rain = 0
KAM1 110020Z 04007KT 18/M11 A2983 RMK A01 T01791109  RH  013%=      5-min Rain = 0
KAM1 110021Z 04007KT 18/M11 A2983 RMK A01 T01771109  RH  013%=      5-min Rain = 0
KAM1 110022Z 04008KT 18/M11 A2983 RMK A01 T01761110  RH  013%=      5-min Rain = 0
KAM1 110023Z 04008KT 17/M11 A2983 RMK A01 T01741110  RH  013%=      5-min Rain = 0
KAM1 110024Z 04008KT 17/M11 A2983 RMK A01 T01721110  RH  013%=      5-min Rain = 0
KAM1 110025Z 04008KT 17/M11 A2982 RMK A01 T01721110  RH  014%=      5-min Rain = 0
KAM1 110026Z 04008KT 17/M11 A2982 RMK A01 T01711110  RH  014%=      5-min Rain = 0
KAM1 110027Z 04008KT 17/M11 A2983 RMK A01 T01701110  RH  014%=      5-min Rain = 0
KAM1 110028Z 04008KT 17/M11 A2983 RMK A01 T01691110  RH  014%=      5-min Rain = 0
KAM1 110029Z 04008KT 17/M11 A2983 RMK A01 T01691109  RH  014%=      5-min Rain = 0
KAM1 110030Z 04008KT 17/M11 A2983 RMK A01 T01681109  RH  014%=      5-min Rain = 0
KAM1 110031Z 04008KT 17/M11 A2983 RMK A01 T01671110  RH  014%=      5-min Rain = 0
KAM1 110032Z 04008KT 17/M11 A2983 RMK A01 T01671110  RH  014%=      5-min Rain = 0
KAM1 110033Z 04007KT 17/M11 A2983 RMK A01 T01661111  RH  014%=      5-min Rain = 0
KAM1 110034Z 04007KT 17/M11 A2983 RMK A01 T01661111  RH  014%=      5-min Rain = 0
KAM1 110035Z 04007KT 17/M11 A2983 RMK A01 T01651111  RH  014%=      5-min Rain = 0
KAM1 110036Z 04007KT 16/M11 A2983 RMK A01 T01641112  RH  014%=      5-min Rain = 0
KAM1 110037Z 04008KT 16/M11 A2983 RMK A01 T01621113  RH  014%=      5-min Rain = 0
KAM1 110038Z 04008KT 16/M11 A2983 RMK A01 T01601113  RH  014%=      5-min Rain = 0
KAM1 110039Z 04008KT 16/M11 A2983 RMK A01 T01591113  RH  014%=      5-min Rain = 0
KAM1 110040Z 04007KT 16/M11 A2983 RMK A01 T01571113  RH  014%=      5-min Rain = 0
KAM1 110041Z 04007KT 16/M11 A2983 RMK A01 T01561114  RH  015%=      5-min Rain = 0
KAM1 110042Z 04007KT 15/M11 A2983 RMK A01 T01541114  RH  015%=      5-min Rain = 0
KAM1 110043Z 03008KT 15/M11 A2983 RMK A01 T01521114  RH  015%=      5-min Rain = 0
KAM1 110044Z 03008KT 15/M11 A2984 RMK A01 T01501114  RH  015%=      5-min Rain = 0
KAM1 110045Z 02009KT 15/M12 A2984 RMK A01 T01461115  RH  015%=      5-min Rain = 0
KAM1 110046Z 02014G19KT 14/M11 A2984 RMK A01 T01431114  RH  016%=      5-min Rain = 0
KAM1 110047Z 02012KT 15/M11 A2984 RMK A01 T01471108  RH  016%=      5-min Rain = 0
KAM1 110048Z 02011KT 15/M10 A2984 RMK A01 T01521104  RH  016%=      5-min Rain = 0
KAM1 110049Z 02013KT 16/M10 A2984 RMK A01 T01571104  RH  016%=      5-min Rain = 0
KAM1 110050Z 02014KT 16/M10 A2984 RMK A01 T01611101  RH  016%=      5-min Rain = 0
KAM1 110051Z 02012KT 16/M10 A2984 RMK A01 T01641100  RH  015%=      5-min Rain = 0
KAM1 110052Z 03013KT 16/M10 A2985 RMK A01 T01641100  RH  015%=      5-min Rain = 0
KAM1 110053Z 02012KT 17/M10 A2985 RMK A01 T01651099  RH  015%=      5-min Rain = 0
KAM1 110054Z 03013KT 16/M10 A2985 RMK A01 T01641099  RH  015%=      5-min Rain = 0
KAM1 110055Z 03011KT 16/M10 A2985 RMK A01 T01641098  RH  016%=      5-min Rain = 0
KAM1 110056Z 03013KT 16/M10 A2985 RMK A01 T01641097  RH  016%=      5-min Rain = 0
KAM1 110057Z 03013KT 16/M10 A2985 RMK A01 T01631097  RH  016%=      5-min Rain = 0
KAM1 110058Z 03012KT 16/M10 A2985 RMK A01 T01641096  RH  016%=      5-min Rain = 0
KAM1 110059Z 03013KT 16/M10 A2985 RMK A01 T01641095  RH  016%=      5-min Rain = 0
KAM1 110100Z 03011KT 16/M10 A2985 RMK A01 T01641095  RH  016%=      5-min Rain = 0
KAM1 110101Z 03011KT 16/M10 A2985 RMK A01 T01631095  RH  016%=      5-min Rain = 0
KAM1 110102Z 03011KT 16/M09 A2985 RMK A01 T01621094  RH  016%=      5-min Rain = 0
KAM1 110103Z 03012KT 16/M09 A2985 RMK A01 T01611094  RH  016%=      5-min Rain = 0
KAM1 110104Z 03012KT 16/M09 A2985 RMK A01 T01601093  RH  017%=      5-min Rain = 0
KAM1 110105Z 03012KT 16/M09 A2985 RMK A01 T01601092  RH  017%=      5-min Rain = 0
KAM1 110106Z 03011KT 16/M09 A2985 RMK A01 T01601092  RH  017%=      5-min Rain = 0
KAM1 110107Z 03012KT 16/M09 A2985 RMK A01 T01601092  RH  017%=      5-min Rain = 0
KAM1 110108Z 03012KT 16/M09 A2985 RMK A01 T01591091  RH  017%=      5-min Rain = 0
KAM1 110109Z 03012KT 16/M09 A2986 RMK A01 T01591091  RH  017%=      5-min Rain = 0
KAM1 110110Z 03012KT 16/M09 A2986 RMK A01 T01601089  RH  017%=      5-min Rain = 0
KAM1 110111Z 03012KT 16/M09 A2986 RMK A01 T01591090  RH  017%=      5-min Rain = 0
KAM1 110112Z 03012KT 16/M09 A2986 RMK A01 T01591090  RH  017%=      5-min Rain = 0
KAM1 110113Z 03012KT 16/M09 A2986 RMK A01 T01581090  RH  017%=      5-min Rain = 0
KAM1 110114Z 03012KT 16/M09 A2986 RMK A01 T01581089  RH  017%=      5-min Rain = 0
KAM1 110115Z 03012KT 16/M09 A2986 RMK A01 T01581090  RH  017%=      5-min Rain = 0
KAM1 110116Z 03012KT 16/M09 A2986 RMK A01 T01591089  RH  017%=      5-min Rain = 0
KAM1 110117Z 03011KT 16/M09 A2986 RMK A01 T01581090  RH  017%=      5-min Rain = 0
KAM1 110118Z 03011KT 16/M09 A2986 RMK A01 T01581089  RH  017%=      5-min Rain = 0
KAM1 110119Z 03011KT 16/M09 A2986 RMK A01 T01571090  RH  017%=      5-min Rain = 0
KAM1 110120Z 03011KT 16/M09 A2986 RMK A01 T01571090  RH  017%=      5-min Rain = 0
KAM1 110121Z 03011KT 16/M09 A2986 RMK A01 T01561091  RH  017%=      5-min Rain = 0
KAM1 110122Z 03011KT 16/M09 A2986 RMK A01 T01551091  RH  017%=      5-min Rain = 0
KAM1 110123Z 03011KT 16/M09 A2986 RMK A01 T01551091  RH  018%=      5-min Rain = 0
KAM1 110124Z 03011KT 16/M09 A2986 RMK A01 T01551091  RH  018%=      5-min Rain = 0
KAM1 110125Z 03011KT 15/M09 A2986 RMK A01 T01541091  RH  018%=      5-min Rain = 0
KAM1 110126Z 03011KT 15/M09 A2986 RMK A01 T01531092  RH  018%=      5-min Rain = 0
KAM1 110127Z 03012KT 15/M09 A2986 RMK A01 T01521092  RH  018%=      5-min Rain = 0
KAM1 110128Z 03011KT 15/M09 A2986 RMK A01 T01521092  RH  018%=      5-min Rain = 0
KAM1 110129Z 03012KT 15/M09 A2986 RMK A01 T01521093  RH  018%=      5-min Rain = 0
KAM1 110130Z 03012KT 15/M09 A2986 RMK A01 T01531093  RH  018%=      5-min Rain = 0
KAM1 110131Z 03011KT 15/M09 A2986 RMK A01 T01531093  RH  017%=      5-min Rain = 0
KAM1 110132Z 03013KT 15/M09 A2986 RMK A01 T01531093  RH  017%=      5-min Rain = 0
KAM1 110133Z 03013KT 15/M09 A2986 RMK A01 T01531093  RH  017%=      5-min Rain = 0
KAM1 110134Z 03012KT 15/M09 A2986 RMK A01 T01531094  RH  017%=      5-min Rain = 0
KAM1 110135Z 03011KT 15/M09 A2986 RMK A01 T01521094  RH  017%=      5-min Rain = 0
KAM1 110136Z 03012KT 15/M09 A2986 RMK A01 T01521094  RH  017%=      5-min Rain = 0
KAM1 110137Z 03012KT 15/M09 A2987 RMK A01 T01511094  RH  018%=      5-min Rain = 0
KAM1 110138Z 03012KT 15/M09 A2987 RMK A01 T01511094  RH  018%=      5-min Rain = 0
KAM1 110139Z 03011KT 15/M09 A2987 RMK A01 T01511094  RH  018%=      5-min Rain = 0
KAM1 110140Z 03012KT 15/M09 A2987 RMK A01 T01511093  RH  018%=      5-min Rain = 0
KAM1 110141Z 03012KT 15/M09 A2987 RMK A01 T01521094  RH  018%=      5-min Rain = 0
KAM1 110142Z 03011KT 15/M09 A2987 RMK A01 T01521093  RH  018%=      5-min Rain = 0
KAM1 110143Z 03010KT 15/M09 A2987 RMK A01 T01511094  RH  018%=      5-min Rain = 0
KAM1 110144Z 03010KT 15/M09 A2987 RMK A01 T01501094  RH  018%=      5-min Rain = 0
KAM1 110145Z 03012KT 15/M09 A2987 RMK A01 T01491094  RH  018%=      5-min Rain = 0
KAM1 110146Z 03012KT 15/M09 A2987 RMK A01 T01491094  RH  018%=      5-min Rain = 0
KAM1 110147Z 03011KT 15/M09 A2987 RMK A01 T01491093  RH  018%=      5-min Rain = 0
KAM1 110148Z 03011KT 15/M09 A2987 RMK A01 T01491094  RH  018%=      5-min Rain = 0
KAM1 110149Z 03011KT 15/M09 A2988 RMK A01 T01481093  RH  018%=      5-min Rain = 0
KAM1 110150Z 03011KT 15/M09 A2988 RMK A01 T01471093  RH  018%=      5-min Rain = 0
KAM1 110151Z 03011KT 15/M09 A2988 RMK A01 T01471093  RH  018%=      5-min Rain = 0
KAM1 110152Z 03011KT 15/M09 A2988 RMK A01 T01461093  RH  018%=      5-min Rain = 0
KAM1 110153Z 03011KT 15/M09 A2988 RMK A01 T01461092  RH  018%=      5-min Rain = 0
KAM1 110154Z 02011KT 15/M09 A2988 RMK A01 T01461092  RH  018%=      5-min Rain = 0
KAM1 110155Z 02011KT 15/M09 A2988 RMK A01 T01461092  RH  018%=      5-min Rain = 0
KAM1 110156Z 03012KT 15/M09 A2988 RMK A01 T01451093  RH  018%=      5-min Rain = 0
KAM1 110157Z 02010KT 15/M09 A2988 RMK A01 T01451092  RH  018%=      5-min Rain = 0
KAM1 110158Z 02011KT 15/M09 A2988 RMK A01 T01451093  RH  018%=      5-min Rain = 0
KAM1 110159Z 02011KT 15/M09 A2988 RMK A01 T01451092  RH  018%=      5-min Rain = 0
KAM1 110200Z 02011KT 14/M09 A2988 RMK A01 T01441093  RH  018%=      5-min Rain = 0
KAM1 110201Z 03011KT 14/M09 A2988 RMK A01 T01441093  RH  018%=      5-min Rain = 0
KAM1 110202Z 02011KT 14/M09 A2988 RMK A01 T01441093  RH  019%=      5-min Rain = 0
KAM1 110203Z 03011KT 14/M09 A2988 RMK A01 T01441093  RH  018%=      5-min Rain = 0
KAM1 110204Z 03010KT 14/M09 A2988 RMK A01 T01441092  RH  019%=      5-min Rain = 0
KAM1 110205Z 02010KT 14/M09 A2988 RMK A01 T01441092  RH  019%=      5-min Rain = 0
KAM1 110206Z 02012KT 14/M09 A2988 RMK A01 T01441092  RH  019%=      5-min Rain = 0
KAM1 110207Z 03012KT 14/M09 A2988 RMK A01 T01431092  RH  019%=      5-min Rain = 0
KAM1 110208Z 03011KT 14/M09 A2989 RMK A01 T01441092  RH  019%=      5-min Rain = 0
KAM1 110209Z 03012KT 14/M09 A2989 RMK A01 T01441092  RH  019%=      5-min Rain = 0
KAM1 110210Z 03012KT 14/M09 A2989 RMK A01 T01441092  RH  019%=      5-min Rain = 0
KAM1 110211Z 03012KT 15/M09 A2989 RMK A01 T01451092  RH  019%=      5-min Rain = 0
KAM1 110212Z 03012KT 15/M09 A2989 RMK A01 T01451092  RH  019%=      5-min Rain = 0
KAM1 110213Z 03013KT 15/M09 A2989 RMK A01 T01451092  RH  019%=      5-min Rain = 0
KAM1 110214Z 03013KT 14/M09 A2989 RMK A01 T01441092  RH  019%=      5-min Rain = 0
KAM1 110215Z 03012KT 14/M09 A2989 RMK A01 T01431093  RH  019%=      5-min Rain = 0
KAM1 110216Z 03011KT 14/M09 A2989 RMK A01 T01441092  RH  019%=      5-min Rain = 0
KAM1 110217Z 03011KT 14/M09 A2989 RMK A01 T01431092  RH  019%=      5-min Rain = 0
KAM1 110218Z 03011KT 14/M09 A2989 RMK A01 T01421093  RH  019%=      5-min Rain = 0
KAM1 110219Z 03012KT 14/M09 A2989 RMK A01 T01411094  RH  019%=      5-min Rain = 0
KAM1 110220Z 02013KT 14/M09 A2989 RMK A01 T01411094  RH  019%=      5-min Rain = 0
KAM1 110221Z 03012KT 14/M09 A2989 RMK A01 T01421093  RH  019%=      5-min Rain = 0
KAM1 110222Z 03013KT 14/M09 A299 RMK A01 T01421094  RH  019%=      5-min Rain = 0
KAM1 110223Z 03012KT 14/M09 A299 RMK A01 T01431094  RH  019%=      5-min Rain = 0
KAM1 110224Z 03013KT 14/M09 A299 RMK A01 T01431094  RH  019%=      5-min Rain = 0
KAM1 110225Z 03013KT 14/M09 A299 RMK A01 T01431094  RH  018%=      5-min Rain = 0
KAM1 110226Z 03013KT 14/M09 A299 RMK A01 T01431094  RH  019%=      5-min Rain = 0
KAM1 110227Z 03012KT 14/M09 A299 RMK A01 T01431094  RH  018%=      5-min Rain = 0
KAM1 110228Z 03013KT 14/M09 A299 RMK A01 T01431094  RH  018%=      5-min Rain = 0
KAM1 110229Z 03011KT 14/M09 A2991 RMK A01 T01431094  RH  018%=      5-min Rain = 0
KAM1 110230Z 02012KT 14/M09 A2991 RMK A01 T01421094  RH  019%=      5-min Rain = 0
KAM1 110231Z 02012KT 14/M09 A2991 RMK A01 T01411094  RH  019%=      5-min Rain = 0
KAM1 110232Z 02013KT 14/M09 A2991 RMK A01 T01411094  RH  019%=      5-min Rain = 0
KAM1 110233Z 02014KT 14/M09 A2991 RMK A01 T01411094  RH  019%=      5-min Rain = 0
KAM1 110234Z 03014KT 14/M09 A2991 RMK A01 T01421094  RH  019%=      5-min Rain = 0
KAM1 110235Z 02014KT 14/M09 A2991 RMK A01 T01421094  RH  019%=      5-min Rain = 0
KAM1 110236Z 03013KT 14/M09 A2991 RMK A01 T01431093  RH  019%=      5-min Rain = 0
KAM1 110237Z 02014KT 14/M09 A2991 RMK A01 T01431093  RH  019%=      5-min Rain = 0
KAM1 110238Z 02013KT 14/M09 A2991 RMK A01 T01431094  RH  019%=      5-min Rain = 0
KAM1 110239Z 02014KT 14/M09 A2991 RMK A01 T01421094  RH  019%=      5-min Rain = 0
KAM1 110240Z 02014KT 14/M09 A2991 RMK A01 T01431094  RH  019%=      5-min Rain = 0
KAM1 110241Z 02013KT 14/M09 A2991 RMK A01 T01431094  RH  019%=      5-min Rain = 0
KAM1 110242Z 03013KT 14/M09 A2991 RMK A01 T01421094  RH  019%=      5-min Rain = 0
KAM1 110243Z 02013KT 14/M09 A2992 RMK A01 T01411094  RH  019%=      5-min Rain = 0
KAM1 110244Z 02014KT 14/M09 A2992 RMK A01 T01421093  RH  019%=      5-min Rain = 0
KAM1 110245Z 02013KT 14/M09 A2992 RMK A01 T01421094  RH  019%=      5-min Rain = 0
KAM1 110246Z 02013KT 14/M09 A2992 RMK A01 T01421094  RH  019%=      5-min Rain = 0
KAM1 110247Z 02014KT 14/M09 A2992 RMK A01 T01421094  RH  019%=      5-min Rain = 0
KAM1 110248Z 03014KT 14/M09 A2992 RMK A01 T01411094  RH  019%=      5-min Rain = 0
KAM1 110249Z 02016KT 14/M09 A2992 RMK A01 T01421094  RH  019%=      5-min Rain = 0
KAM1 110250Z 02017KT 14/M09 A2992 RMK A01 T01431094  RH  018%=      5-min Rain = 0
KAM1 110251Z 02015KT 14/M09 A2992 RMK A01 T01441093  RH  018%=      5-min Rain = 0
KAM1 110252Z 03015G20KT 14/M09 A2993 RMK A01 T01441094  RH  018%=      5-min Rain = 0
KAM1 110253Z 02018KT 14/M09 A2993 RMK A01 T01441094  RH  018%=      5-min Rain = 0
KAM1 110254Z 02015KT 14/M09 A2993 RMK A01 T01441093  RH  018%=      5-min Rain = 0
KAM1 110255Z 03016KT 15/M09 A2993 RMK A01 T01451092  RH  019%=      5-min Rain = 0
KAM1 110256Z 03016G22KT 15/M09 A2993 RMK A01 T01451091  RH  019%=      5-min Rain = 0
KAM1 110257Z 02017KT 15/M09 A2993 RMK A01 T01451091  RH  019%=      5-min Rain = 0
KAM1 110258Z 03016KT 15/M09 A2993 RMK A01 T01451091  RH  019%=      5-min Rain = 0
KAM1 110259Z 03018KT 15/M09 A2993 RMK A01 T01451091  RH  019%=      5-min Rain = 0
KAM1 110300Z 03016KT 14/M09 A2993 RMK A01 T01441090  RH  019%=      5-min Rain = 0
KAM1 110301Z 02015KT 14/M09 A2993 RMK A01 T01441089  RH  019%=      5-min Rain = 0
KAM1 110302Z 03015KT 14/M09 A2994 RMK A01 T01431089  RH  019%=      5-min Rain = 0
KAM1 110303Z 02014KT 14/M09 A2993 RMK A01 T01421089  RH  019%=      5-min Rain = 0
KAM1 110304Z 03016G21KT 14/M09 A2994 RMK A01 T01421089  RH  019%=      5-min Rain = 0
KAM1 110305Z 02015KT 14/M09 A2994 RMK A01 T01421088  RH  020%=      5-min Rain = 0
KAM1 110306Z 03015KT 14/M09 A2994 RMK A01 T01411088  RH  020%=      5-min Rain = 0
KAM1 110307Z 03014KT 14/M09 A2994 RMK A01 T01411088  RH  020%=      5-min Rain = 0
KAM1 110308Z 03016KT 14/M09 A2994 RMK A01 T01401087  RH  020%=      5-min Rain = 0
KAM1 110309Z 03014KT 14/M09 A2994 RMK A01 T01401086  RH  020%=      5-min Rain = 0
KAM1 110310Z 03016KT 14/M09 A2994 RMK A01 T01401086  RH  020%=      5-min Rain = 0
KAM1 110311Z 02015G20KT 14/M09 A2994 RMK A01 T01401085  RH  020%=      5-min Rain = 0
KAM1 110312Z 03018KT 14/M08 A2994 RMK A01 T01401084  RH  020%=      5-min Rain = 0
KAM1 110313Z 02015KT 14/M08 A2994 RMK A01 T01411083  RH  020%=      5-min Rain = 0
KAM1 110314Z 03014G19KT 14/M08 A2994 RMK A01 T01411083  RH  020%=      5-min Rain = 0
KAM1 110315Z 03018KT 14/M08 A2994 RMK A01 T01411083  RH  020%=      5-min Rain = 0
KAM1 110316Z 03018KT 14/M08 A2994 RMK A01 T01411082  RH  021%=      5-min Rain = 0
KAM1 110317Z 03014G19KT 14/M08 A2994 RMK A01 T01411081  RH  021%=      5-min Rain = 0
KAM1 110318Z 03018KT 14/M08 A2994 RMK A01 T01411082  RH  021%=      5-min Rain = 0
KAM1 110319Z 03016KT 14/M08 A2994 RMK A01 T01411081  RH  021%=      5-min Rain = 0
KAM1 110320Z 03016KT 14/M08 A2995 RMK A01 T01401082  RH  021%=      5-min Rain = 0
KAM1 110321Z 03015KT 14/M08 A2995 RMK A01 T01391082  RH  021%=      5-min Rain = 0
KAM1 110322Z 02018KT 14/M08 A2995 RMK A01 T01391081  RH  021%=      5-min Rain = 0
KAM1 110323Z 03017KT 14/M08 A2995 RMK A01 T01391081  RH  021%=      5-min Rain = 0
KAM1 110324Z 03016KT 14/M08 A2995 RMK A01 T01401080  RH  021%=      5-min Rain = 0
KAM1 110325Z 03014KT 14/M08 A2995 RMK A01 T01401081  RH  021%=      5-min Rain = 0
KAM1 110326Z 03017G22KT 14/M08 A2995 RMK A01 T01401081  RH  021%=      5-min Rain = 0
KAM1 110327Z 03015KT 14/M08 A2995 RMK A01 T01401080  RH  021%=      5-min Rain = 0
KAM1 110328Z 03015KT 14/M08 A2995 RMK A01 T01391081  RH  021%=      5-min Rain = 0
KAM1 110329Z 03016KT 14/M08 A2996 RMK A01 T01391081  RH  021%=      5-min Rain = 0
KAM1 110330Z 03016KT 14/M08 A2996 RMK A01 T01391081  RH  021%=      5-min Rain = 0
KAM1 110331Z 03017KT 14/M08 A2996 RMK A01 T01381081  RH  021%=      5-min Rain = 0
KAM1 110332Z 03019KT 14/M08 A2996 RMK A01 T01381081  RH  021%=      5-min Rain = 0
KAM1 110333Z 03018KT 14/M08 A2996 RMK A01 T01391080  RH  021%=      5-min Rain = 0
KAM1 110334Z 02017G22KT 14/M08 A2996 RMK A01 T01381081  RH  021%=      5-min Rain = 0
KAM1 110335Z 02015KT 14/M08 A2996 RMK A01 T01381081  RH  021%=      5-min Rain = 0
KAM1 110336Z 02018KT 14/M08 A2996 RMK A01 T01371081  RH  021%=      5-min Rain = 0
KAM1 110337Z 02018KT 14/M08 A2996 RMK A01 T01371081  RH  021%=      5-min Rain = 0
KAM1 110338Z 01020KT 14/M08 A2996 RMK A01 T01371081  RH  021%=      5-min Rain = 0
KAM1 110339Z 02024G31KT 14/M08 A2997 RMK A01 T01371081  RH  021%=      5-min Rain = 0
KAM1 110340Z 02019G24KT 14/M08 A2997 RMK A01 T01371081  RH  021%=      5-min Rain = 0
KAM1 110341Z 02021G26KT 14/M08 A2997 RMK A01 T01361082  RH  021%=      5-min Rain = 0
KAM1 110342Z 02022G27KT 14/M08 A2997 RMK A01 T01361081  RH  021%=      5-min Rain = 0
KAM1 110343Z 02023KT 14/M08 A2997 RMK A01 T01351080  RH  022%=      5-min Rain = 0
KAM1 110344Z 02026G33KT 13/M08 A2998 RMK A01 T01341078  RH  022%=      5-min Rain = 0
KAM1 110345Z 02025G30KT 13/M08 A2998 RMK A01 T01331076  RH  023%=      5-min Rain = 0
KAM1 110346Z 02026G31KT 13/M07 A2998 RMK A01 T01331074  RH  023%=      5-min Rain = 0
KAM1 110347Z 02026G32KT 13/M07 A2998 RMK A01 T01321073  RH  023%=      5-min Rain = 0
KAM1 110348Z 03029KT 13/M07 A2998 RMK A01 T01311071  RH  024%=      5-min Rain = 0
KAM1 110349Z 03029G35KT 13/M07 A2998 RMK A01 T01311069  RH  024%=      5-min Rain = 0
KAM1 110350Z 03024G30KT 13/M07 A2998 RMK A01 T01311069  RH  024%=      5-min Rain = 0
KAM1 110351Z 03021G30KT 13/M07 A2998 RMK A01 T01301069  RH  024%=      5-min Rain = 0
KAM1 110352Z 03024KT 13/M07 A2998 RMK A01 T01291068  RH  025%=      5-min Rain = 0
KAM1 110353Z 02023G28KT 13/M07 A2998 RMK A01 T01291068  RH  025%=      5-min Rain = 0
KAM1 110354Z 03022KT 13/M07 A2998 RMK A01 T01281068  RH  025%=      5-min Rain = 0
KAM1 110355Z 03020G25KT 13/M07 A2999 RMK A01 T01271068  RH  025%=      5-min Rain = 0
KAM1 110356Z 02020KT 13/M07 A2999 RMK A01 T01271068  RH  025%=      5-min Rain = 0
KAM1 110357Z 02025G30KT 13/M07 A2999 RMK A01 T01261068  RH  025%=      5-min Rain = 0
KAM1 110358Z 03022KT 13/M07 A2999 RMK A01 T01251067  RH  025%=      5-min Rain = 0
KAM1 110359Z 02023KT 13/M07 A2999 RMK A01 T01251067  RH  026%=      5-min Rain = 0
KAM1 110400Z 03021G28KT 13/M07 A2999 RMK A01 T01251067  RH  026%=      5-min Rain = 0
KAM1 110401Z 02023G30KT 13/M07 A2999 RMK A01 T01251066  RH  026%=      5-min Rain = 0
KAM1 110402Z 02023KT 12/M07 A2999 RMK A01 T01241066  RH  026%=      5-min Rain = 0
KAM1 110403Z 02020KT 12/M07 A2999 RMK A01 T01241066  RH  026%=      5-min Rain = 0
KAM1 110404Z 02024KT 12/M07 A30 RMK A01 T01231066  RH  026%=      5-min Rain = 0
KAM1 110405Z 02023KT 12/M07 A30 RMK A01 T01231065  RH  026%=      5-min Rain = 0
KAM1 110406Z 03020G26KT 12/M07 A30 RMK A01 T01231066  RH  026%=      5-min Rain = 0
KAM1 110407Z 02020KT 12/M07 A30 RMK A01 T01221066  RH  026%=      5-min Rain = 0
KAM1 110408Z 03024G29KT 12/M07 A30 RMK A01 T01211066  RH  027%=      5-min Rain = 0
KAM1 110409Z 02022G28KT 12/M07 A30 RMK A01 T01211065  RH  027%=      5-min Rain = 0
KAM1 110410Z 03024KT 12/M07 A30 RMK A01 T01211065  RH  027%=      5-min Rain = 0
KAM1 110411Z 03022G29KT 12/M07 A30 RMK A01 T01201065  RH  027%=      5-min Rain = 0
KAM1 110412Z 03022G29KT 12/M06 A30 RMK A01 T01201064  RH  027%=      5-min Rain = 0
KAM1 110413Z 03023G28KT 12/M06 A30 RMK A01 T01201064  RH  027%=      5-min Rain = 0
KAM1 110414Z 03025G31KT 12/M06 A30 RMK A01 T01191064  RH  027%=      5-min Rain = 0
KAM1 110415Z 03022G27KT 12/M06 A30 RMK A01 T01191064  RH  027%=      5-min Rain = 0
KAM1 110416Z 03023KT 12/M06 A30 RMK A01 T01191064  RH  027%=      5-min Rain = 0
KAM1 110417Z 02024G30KT 12/M06 A3001 RMK A01 T01191064  RH  027%=      5-min Rain = 0
KAM1 110418Z 02025KT 12/M06 A30 RMK A01 T01181064  RH  027%=      5-min Rain = 0
KAM1 110419Z 03021KT 12/M06 A3001 RMK A01 T01181064  RH  027%=      5-min Rain = 0
KAM1 110420Z 03020G28KT 12/M06 A3001 RMK A01 T01171064  RH  028%=      5-min Rain = 0
KAM1 110421Z 03024G30KT 12/M06 A3001 RMK A01 T01161064  RH  028%=      5-min Rain = 0
KAM1 110422Z 02023G28KT 12/M06 A3001 RMK A01 T01161063  RH  028%=      5-min Rain = 0
KAM1 110423Z 02020G27KT 12/M06 A3001 RMK A01 T01161063  RH  028%=      5-min Rain = 0
KAM1 110424Z 03022G27KT 12/M06 A3001 RMK A01 T01161063  RH  028%=      5-min Rain = 0
KAM1 110425Z 03020KT 12/M06 A3001 RMK A01 T01151064  RH  028%=      5-min Rain = 0
KAM1 110426Z 02020G27KT 11/M06 A3001 RMK A01 T01141064  RH  028%=      5-min Rain = 0
KAM1 110427Z 03019G25KT 11/M06 A3001 RMK A01 T01141063  RH  028%=      5-min Rain = 0
KAM1 110428Z 03020G26KT 11/M06 A3001 RMK A01 T01141063  RH  028%=      5-min Rain = 0
KAM1 110429Z 03019KT 11/M06 A3001 RMK A01 T01141063  RH  028%=      5-min Rain = 0
KAM1 110430Z 03020G25KT 11/M06 A3002 RMK A01 T01131063  RH  028%=      5-min Rain = 0
KAM1 110431Z 02019G25KT 11/M06 A3002 RMK A01 T01131063  RH  029%=      5-min Rain = 0
KAM1 110432Z 02023KT 11/M06 A3002 RMK A01 T01121064  RH  029%=      5-min Rain = 0
KAM1 110433Z 02026KT 11/M06 A3002 RMK A01 T01121063  RH  029%=      5-min Rain = 0
KAM1 110434Z 03025KT 11/M06 A3002 RMK A01 T01141062  RH  029%=      5-min Rain = 0
KAM1 110435Z 03026G31KT 11/M06 A3002 RMK A01 T01141063  RH  028%=      5-min Rain = 0
KAM1 110436Z 03021G29KT 11/M06 A3002 RMK A01 T01141063  RH  028%=      5-min Rain = 0
KAM1 110437Z 03024KT 11/M06 A3002 RMK A01 T01141062  RH  029%=      5-min Rain = 0
KAM1 110438Z 02025G31KT 11/M06 A3003 RMK A01 T01131063  RH  029%=      5-min Rain = 0
KAM1 110439Z 03022G28KT 11/M06 A3003 RMK A01 T01131063  RH  029%=      5-min Rain = 0
KAM1 110440Z 03021G30KT 11/M06 A3003 RMK A01 T01131063  RH  029%=      5-min Rain = 0
KAM1 110441Z 03024G30KT 11/M06 A3003 RMK A01 T01121064  RH  029%=      5-min Rain = 0
KAM1 110442Z 03022G29KT 11/M06 A3003 RMK A01 T01131063  RH  029%=      5-min Rain = 0
KAM1 110443Z 02024KT 11/M06 A3003 RMK A01 T01131063  RH  029%=      5-min Rain = 0
KAM1 110444Z 03021KT 11/M06 A3003 RMK A01 T01131063  RH  029%=      5-min Rain = 0
KAM1 110445Z 02022G31KT 11/M06 A3003 RMK A01 T01131063  RH  029%=      5-min Rain = 0
KAM1 110446Z 02024G30KT 11/M06 A3003 RMK A01 T01121064  RH  029%=      5-min Rain = 0
KAM1 110447Z 02022G27KT 11/M06 A3003 RMK A01 T01121063  RH  029%=      5-min Rain = 0
KAM1 110448Z 02021G28KT 11/M06 A3003 RMK A01 T01121063  RH  029%=      5-min Rain = 0
KAM1 110449Z 02023G28KT 11/M06 A3003 RMK A01 T01111063  RH  029%=      5-min Rain = 0
KAM1 110450Z 02025G30KT 11/M06 A3003 RMK A01 T01111063  RH  029%=      5-min Rain = 0
KAM1 110451Z 02021G26KT 11/M06 A3003 RMK A01 T01121063  RH  029%=      5-min Rain = 0
KAM1 110452Z 02017KT 11/M06 A3003 RMK A01 T01111063  RH  029%=      5-min Rain = 0
KAM1 110453Z 02016G22KT 11/M06 A3003 RMK A01 T01101064  RH  029%=      5-min Rain = 0
KAM1 110454Z 03019KT 11/M06 A3004 RMK A01 T01091064  RH  029%=      5-min Rain = 0
KAM1 110455Z 02017G23KT 11/M06 A3004 RMK A01 T01091063  RH  029%=      5-min Rain = 0
KAM1 110456Z 03021KT 11/M06 A3004 RMK A01 T01091063  RH  029%=      5-min Rain = 0
KAM1 110457Z 02019G26KT 11/M06 A3004 RMK A01 T01091063  RH  029%=      5-min Rain = 0
KAM1 110458Z 02018G24KT 11/M06 A3004 RMK A01 T01091063  RH  029%=      5-min Rain = 0
KAM1 110459Z 02022G27KT 11/M06 A3004 RMK A01 T01091063  RH  029%=      5-min Rain = 0
KAM1 110500Z 02019KT 11/M06 A3004 RMK A01 T01091063  RH  029%=      5-min Rain = 0
KAM1 110501Z 02021G26KT 11/M06 A3004 RMK A01 T01091063  RH  029%=      5-min Rain = 0
KAM1 110502Z 02019G24KT 11/M06 A3004 RMK A01 T01091062  RH  030%=      5-min Rain = 0
KAM1 110503Z 02022G29KT 11/M06 A3004 RMK A01 T01081062  RH  030%=      5-min Rain = 0
KAM1 110504Z 03018G23KT 11/M06 A3004 RMK A01 T01091062  RH  030%=      5-min Rain = 0
KAM1 110505Z 02020G25KT 11/M06 A3004 RMK A01 T01091062  RH  030%=      5-min Rain = 0
KAM1 110506Z 03019G24KT 11/M06 A3004 RMK A01 T01091062  RH  030%=      5-min Rain = 0
KAM1 110507Z 02019G26KT 11/M06 A3004 RMK A01 T01081062  RH  030%=      5-min Rain = 0
KAM1 110508Z 02017KT 11/M06 A3004 RMK A01 T01081062  RH  030%=      5-min Rain = 0
KAM1 110509Z 02019KT 11/M06 A3005 RMK A01 T01071063  RH  030%=      5-min Rain = 0
KAM1 110510Z 02018G23KT 11/M06 A3005 RMK A01 T01071062  RH  030%=      5-min Rain = 0
KAM1 110511Z 02022G27KT 11/M06 A3005 RMK A01 T01071062  RH  030%=      5-min Rain = 0
KAM1 110512Z 02022G27KT 11/M06 A3005 RMK A01 T01071062  RH  030%=      5-min Rain = 0
KAM1 110513Z 02023KT 11/M06 A3005 RMK A01 T01081061  RH  030%=      5-min Rain = 0
KAM1 110514Z 02020G25KT 11/M06 A3005 RMK A01 T01081062  RH  030%=      5-min Rain = 0
KAM1 110515Z 02022G29KT 11/M06 A3006 RMK A01 T01081061  RH  030%=      5-min Rain = 0
KAM1 110516Z 02020G25KT 11/M06 A3005 RMK A01 T01081061  RH  030%=      5-min Rain = 0
KAM1 110517Z 02022G30KT 11/M06 A3006 RMK A01 T01081061  RH  030%=      5-min Rain = 0
KAM1 110518Z 02026G31KT 11/M06 A3006 RMK A01 T01071061  RH  030%=      5-min Rain = 0
KAM1 110519Z 02021G26KT 11/M06 A3006 RMK A01 T01081061  RH  030%=      5-min Rain = 0
KAM1 110520Z 02023G29KT 11/M06 A3006 RMK A01 T01081061  RH  030%=      5-min Rain = 0
KAM1 110521Z 02020G25KT 11/M06 A3006 RMK A01 T01071061  RH  030%=      5-min Rain = 0
KAM1 110522Z 02020KT 11/M06 A3006 RMK A01 T01071062  RH  030%=      5-min Rain = 0
KAM1 110523Z 02018KT 11/M06 A3006 RMK A01 T01061061  RH  030%=      5-min Rain = 0
KAM1 110524Z 02020KT 11/M06 A3006 RMK A01 T01051061  RH  030%=      5-min Rain = 0
KAM1 110525Z 03020KT 11/M06 A3006 RMK A01 T01051061  RH  031%=      5-min Rain = 0
KAM1 110526Z 03021G26KT 11/M06 A3006 RMK A01 T01051061  RH  031%=      5-min Rain = 0
KAM1 110527Z 02020KT 11/M06 A3006 RMK A01 T01051061  RH  031%=      5-min Rain = 0
KAM1 110528Z 02021G26KT 11/M06 A3006 RMK A01 T01051060  RH  031%=      5-min Rain = 0
KAM1 110529Z 02020KT 11/M06 A3006 RMK A01 T01051060  RH  031%=      5-min Rain = 0
KAM1 110530Z 02023KT 11/M06 A3006 RMK A01 T01051061  RH  031%=      5-min Rain = 0
KAM1 110531Z 02019KT 10/M06 A3006 RMK A01 T01041060  RH  031%=      5-min Rain = 0
KAM1 110532Z 02021G26KT 10/M06 A3006 RMK A01 T01041061  RH  031%=      5-min Rain = 0
KAM1 110533Z 02021KT 10/M06 A3006 RMK A01 T01041060  RH  031%=      5-min Rain = 0
KAM1 110534Z 02021G29KT 10/M06 A3006 RMK A01 T01031061  RH  031%=      5-min Rain = 0
KAM1 110535Z 02018G23KT 10/M06 A3006 RMK A01 T01031060  RH  031%=      5-min Rain = 0
KAM1 110536Z 02023KT 10/M06 A3007 RMK A01 T01031060  RH  031%=      5-min Rain = 0
KAM1 110537Z 02020G26KT 10/M06 A3007 RMK A01 T01031060  RH  031%=      5-min Rain = 0
KAM1 110538Z 02020G26KT 10/M06 A3007 RMK A01 T01031060  RH  031%=      5-min Rain = 0
KAM1 110539Z 02019G24KT 10/M06 A3007 RMK A01 T01031060  RH  031%=      5-min Rain = 0
KAM1 110540Z 02026G31KT 10/M06 A3007 RMK A01 T01031060  RH  031%=      5-min Rain = 0
KAM1 110541Z 02021KT 10/M06 A3007 RMK A01 T01031059  RH  031%=      5-min Rain = 0
KAM1 110542Z 02020G25KT 10/M06 A3007 RMK A01 T01031060  RH  031%=      5-min Rain = 0
KAM1 110543Z 02019KT 10/M06 A3007 RMK A01 T01021060  RH  031%=      5-min Rain = 0
KAM1 110544Z 02017KT 10/M06 A3007 RMK A01 T01021060  RH  032%=      5-min Rain = 0
KAM1 110545Z 02018KT 10/M06 A3007 RMK A01 T01011060  RH  032%=      5-min Rain = 0
KAM1 110546Z 02017KT 10/M06 A3008 RMK A01 T01011060  RH  032%=      5-min Rain = 0
KAM1 110547Z 02020G27KT 10/M06 A3008 RMK A01 T01001060  RH  032%=      5-min Rain = 0
KAM1 110548Z 02020G25KT 10/M06 A3008 RMK A01 T01001060  RH  032%=      5-min Rain = 0
KAM1 110549Z 02019G24KT 10/M06 A3008 RMK A01 T01001060  RH  032%=      5-min Rain = 0
KAM1 110550Z 02018KT 10/M06 A3008 RMK A01 T01001060  RH  032%=      5-min Rain = 0
KAM1 110551Z 02019KT 10/M06 A3008 RMK A01 T01001060  RH  032%=      5-min Rain = 0
KAM1 110552Z 02022KT 10/M06 A3008 RMK A01 T00991060  RH  032%=      5-min Rain = 0
KAM1 110553Z 02019G25KT 10/M06 A3008 RMK A01 T00991060  RH  032%=      5-min Rain = 0
KAM1 110554Z 02024KT 10/M06 A3008 RMK A01 T00991059  RH  032%=      5-min Rain = 0
KAM1 110555Z 02023KT 10/M06 A3008 RMK A01 T00991059  RH  032%=      5-min Rain = 0
KAM1 110556Z 02020G25KT 10/M06 A3008 RMK A01 T01001059  RH  032%=      5-min Rain = 0
KAM1 110557Z 02017G22KT 10/M06 A3008 RMK A01 T01001059  RH  032%=      5-min Rain = 0
KAM1 110558Z 02021KT 10/M06 A3008 RMK A01 T00991059  RH  032%=      5-min Rain = 0
KAM1 110559Z 02021KT 10/M06 A3008 RMK A01 T00981059  RH  033%=      5-min Rain = 0

Page generated in 0.1214 seconds.